Darstellungsparameter: Aktuell verwendete Einstellungen:
Skalierung der Graphiken ... ?
xyx+y,   Skalierungsfaktor:      Skalierung: Modus: x, Faktor: 1
Darstellungszeitraum ... ?
Vom - - bis: - -   Zeitraum: 31.05.2014 - 04.06.2014
Min/Max/Avg-Anzeige ... ?
Zeige MMA aktuell
Zeige MMA Monat
Zeige MMA alles
Zeige --A aktuell
Zeige --A Monat
Zeige --A alles
Keine MMA-Anzeige
MMA:
Keine MMA-Graphiken
MMA-Basis: 31.05.2014 - 04.06.2014
Quicknavigation für Darstellung... ?
Tage:      1T, 2T, 3T, 5T -1T -2T -3T -5T +1T +2T +3T +5T
Wochen: 1W, 2W, 3W -1W -2W -3W +1W +2W +3W
Monate: 1M, 3M, 6M -1M -3M -6M +1M +3M +6M
Jahre:    1J, 3J, 5J, 10J -1J -3J -5J -10J +1J +3J +5J +10J
Nutze für die Darstellung ... ?
Originaldaten oder Mittelwerte auf ...
Stundenbasis Tagesbasis Wochenbasis
Monatsbasis Jahresbasis      Datenbasis: Original-Daten
Darstellen als:
Statistik (Auto) Statistik J:M      Darstellung:
Zur Graphik,    zurück zur Übersicht aller Sensoren.
 
Tabellarische Datenbersicht: ?
 
Sensor: Nr:Datum:Temp:Abs-Feuchte:Windchill:Wind:
Aussen-T/F 1 31-05-2014 00:00:00 8.3 C 7.33 g/m*3 8.3 C 0 km/h
2 31-05-2014 00:05:00 8.2 C 7.2 g/m*3 8.2 C 0 km/h
3 31-05-2014 00:10:00 8.2 C 7.29 g/m*3 8.2 C 0 km/h
4 31-05-2014 00:15:00 8.2 C 7.29 g/m*3 8.2 C 0 km/h
5 31-05-2014 00:20:00 8.1 C 7.24 g/m*3 8.1 C 0 km/h
6 31-05-2014 00:25:00 8 C 7.19 g/m*3 8 C 0 km/h
7 31-05-2014 00:30:00 8 C 7.28 g/m*3 8 C 0 km/h
8 31-05-2014 00:35:00 7.9 C 7.23 g/m*3 7.9 C 0 km/h
9 31-05-2014 00:40:00 7.8 C 7.18 g/m*3 7.8 C 0 km/h
10 31-05-2014 00:45:00 7.8 C 7.26 g/m*3 7.8 C 0 km/h
11 31-05-2014 00:50:00 7.7 C 7.22 g/m*3 7.7 C 0 km/h
12 31-05-2014 00:55:00 7.7 C 7.22 g/m*3 7.7 C 0 km/h
13 31-05-2014 01:00:00 7.7 C 7.22 g/m*3 7.7 C 0 km/h
14 31-05-2014 01:05:00 7.6 C 7.25 g/m*3 7.6 C 0 km/h
15 31-05-2014 01:10:00 7.6 C 7.25 g/m*3 7.6 C 0 km/h
16 31-05-2014 01:15:00 7.5 C 7.2 g/m*3 7.5 C 0 km/h
17 31-05-2014 01:20:00 7.5 C 7.2 g/m*3 7.5 C 0 km/h
18 31-05-2014 01:25:00 7.4 C 7.16 g/m*3 7.4 C 0 km/h
19 31-05-2014 01:30:00 7.4 C 7.16 g/m*3 7.4 C 0 km/h
20 31-05-2014 01:35:00 7.3 C 7.19 g/m*3 7.3 C 0 km/h
21 31-05-2014 01:40:00 7.3 C 7.11 g/m*3 7.3 C 0 km/h
22 31-05-2014 01:45:00 7.3 C 7.19 g/m*3 7.3 C 0 km/h
23 31-05-2014 01:50:00 7.3 C 7.19 g/m*3 7.3 C 0 km/h
24 31-05-2014 01:55:00 7.2 C 7.14 g/m*3 7.2 C 0 km/h
25 31-05-2014 02:00:00 7.2 C 7.14 g/m*3 7.2 C 0 km/h
Sensor: Nr:Datum:Temp:Abs-Feuchte:Windchill:Wind:
Aussen-T/F 26 31-05-2014 02:05:00 7.2 C 7.14 g/m*3 7.2 C 0 km/h
27 31-05-2014 02:10:00 7.1 C 7.18 g/m*3 7.1 C 0 km/h
28 31-05-2014 02:15:00 7.1 C 7.18 g/m*3 7.1 C 0 km/h
29 31-05-2014 02:20:00 7 C 7.13 g/m*3 7 C 0 km/h
30 31-05-2014 02:25:00 6.9 C 7.08 g/m*3 6.9 C 0 km/h
31 31-05-2014 02:30:00 6.9 C 7.08 g/m*3 6.9 C 0 km/h
32 31-05-2014 02:35:00 6.8 C 7.11 g/m*3 6.8 C 0 km/h
33 31-05-2014 02:40:00 6.8 C 7.11 g/m*3 6.8 C 0 km/h
34 31-05-2014 02:45:00 6.7 C 7.07 g/m*3 6.7 C 1.6 km/h
35 31-05-2014 02:50:00 6.7 C 7.07 g/m*3 6.7 C 1.6 km/h
36 31-05-2014 02:55:00 6.7 C 7.07 g/m*3 6.7 C 0 km/h
37 31-05-2014 03:00:00 6.7 C 7.07 g/m*3 6.7 C 0 km/h
38 31-05-2014 03:05:00 6.6 C 7.02 g/m*3 6.6 C 0 km/h
39 31-05-2014 03:10:00 6.6 C 7.02 g/m*3 6.6 C 0 km/h
40 31-05-2014 03:15:00 6.6 C 7.02 g/m*3 6.6 C 0 km/h
41 31-05-2014 03:20:00 6.5 C 6.97 g/m*3 6.5 C 0 km/h
42 31-05-2014 03:25:00 6.4 C 7 g/m*3 6.4 C 0 km/h
43 31-05-2014 03:30:00 6.4 C 7 g/m*3 6.4 C 0 km/h
44 31-05-2014 03:35:00 6.4 C 7 g/m*3 6.4 C 0 km/h
45 31-05-2014 03:40:00 6.3 C 6.96 g/m*3 6.3 C 0 km/h
46 31-05-2014 03:45:00 6.3 C 6.96 g/m*3 6.3 C 0 km/h
47 31-05-2014 03:50:00 6.3 C 6.96 g/m*3 6.3 C 0 km/h
48 31-05-2014 03:55:00 6.2 C 6.91 g/m*3 6.2 C 0 km/h
49 31-05-2014 04:00:00 6.2 C 6.91 g/m*3 6.2 C 1.6 km/h
50 31-05-2014 04:05:00 6.1 C 6.87 g/m*3 6.1 C 0 km/h
Sensor: Nr:Datum:Temp:Abs-Feuchte:Windchill:Wind:
Aussen-T/F 51 31-05-2014 04:10:00 6.1 C 6.87 g/m*3 6.1 C 0 km/h
52 31-05-2014 04:15:00 6.1 C 6.87 g/m*3 6.1 C 0 km/h
53 31-05-2014 04:20:00 6 C 6.82 g/m*3 6 C 0 km/h
54 31-05-2014 04:25:00 6 C 6.82 g/m*3 6 C 0 km/h
55 31-05-2014 04:30:00 6 C 6.9 g/m*3 6 C 0 km/h
56 31-05-2014 04:35:00 6 C 6.9 g/m*3 6 C 0 km/h
57 31-05-2014 04:40:00 5.9 C 6.85 g/m*3 5.9 C 0 km/h
58 31-05-2014 04:45:00 5.9 C 6.85 g/m*3 5.9 C 0 km/h
59 31-05-2014 04:50:00 5.8 C 6.81 g/m*3 5.8 C 0 km/h
60 31-05-2014 04:55:00 5.8 C 6.81 g/m*3 5.8 C 0 km/h
61 31-05-2014 05:00:00 5.8 C 6.81 g/m*3 5.8 C 1.6 km/h
62 31-05-2014 05:05:00 5.8 C 6.81 g/m*3 5.8 C 0 km/h
63 31-05-2014 05:10:00 5.7 C 6.76 g/m*3 5.7 C 0 km/h
64 31-05-2014 05:15:00 5.7 C 6.76 g/m*3 5.7 C 0 km/h
65 31-05-2014 05:20:00 5.6 C 6.72 g/m*3 5.6 C 0 km/h
66 31-05-2014 05:25:00 5.5 C 6.67 g/m*3 5.5 C 0 km/h
67 31-05-2014 05:30:00 5.4 C 6.63 g/m*3 5.4 C 0 km/h
68 31-05-2014 05:35:00 5.4 C 6.63 g/m*3 5.4 C 0 km/h
69 31-05-2014 05:40:00 5.4 C 6.63 g/m*3 5.4 C 0 km/h
70 31-05-2014 05:45:00 5.4 C 6.63 g/m*3 5.4 C 0 km/h
71 31-05-2014 05:50:00 5.4 C 6.63 g/m*3 5.4 C 0 km/h
72 31-05-2014 05:55:00 5.3 C 6.58 g/m*3 5.3 C 0 km/h
73 31-05-2014 06:00:00 5.3 C 6.58 g/m*3 5.3 C 0 km/h
74 31-05-2014 06:05:00 5.3 C 6.58 g/m*3 5.3 C 0 km/h
75 31-05-2014 06:10:00 5.4 C 6.63 g/m*3 5.4 C 0 km/h
Sensor: Nr:Datum:Temp:Abs-Feuchte:Windchill:Wind:
Aussen-T/F 76 31-05-2014 06:15:00 5.4 C 6.63 g/m*3 5.4 C 1.6 km/h
77 31-05-2014 06:20:00 5.5 C 6.74 g/m*3 5.5 C 3.2 km/h
78 31-05-2014 06:25:00 5.5 C 6.74 g/m*3 5.5 C 4.8 km/h
79 31-05-2014 06:30:00 5.6 C 6.79 g/m*3 5.6 C 3.2 km/h
80 31-05-2014 06:35:00 5.6 C 6.79 g/m*3 5.6 C 4.8 km/h
81 31-05-2014 06:40:00 5.7 C 6.83 g/m*3 5.7 C 3.2 km/h
82 31-05-2014 06:45:00 5.7 C 6.83 g/m*3 5.7 C 3.2 km/h
83 31-05-2014 06:50:00 5.7 C 6.83 g/m*3 5.7 C 3.2 km/h
84 31-05-2014 06:55:00 5.7 C 6.83 g/m*3 5.7 C 3.2 km/h
85 31-05-2014 07:00:00 5.8 C 6.88 g/m*3 5.8 C 4.8 km/h
86 31-05-2014 07:05:00 5.8 C 6.88 g/m*3 5.8 C 3.2 km/h
87 31-05-2014 07:10:00 5.8 C 6.88 g/m*3 5.8 C 3.2 km/h
88 31-05-2014 07:15:00 5.9 C 6.92 g/m*3 5.9 C 3.2 km/h
89 31-05-2014 07:20:00 6 C 6.97 g/m*3 6 C 1.6 km/h
90 31-05-2014 07:25:00 6.1 C 7.01 g/m*3 6.1 C 3.2 km/h
91 31-05-2014 07:30:00 6.1 C 7.01 g/m*3 6.1 C 3.2 km/h
92 31-05-2014 07:35:00 6.3 C 7.11 g/m*3 6.3 C 0 km/h
93 31-05-2014 07:40:00 6.4 C 7.15 g/m*3 6.4 C 1.6 km/h
94 31-05-2014 07:45:00 6.6 C 7.25 g/m*3 6.6 C 1.6 km/h
95 31-05-2014 07:50:00 6.7 C 7.29 g/m*3 6.7 C 0 km/h
96 31-05-2014 07:55:00 7 C 7.44 g/m*3 7 C 0 km/h
97 31-05-2014 08:00:00 7.3 C 7.58 g/m*3 7.3 C 0 km/h
98 31-05-2014 08:05:00 7.5 C 7.6 g/m*3 7.5 C 0 km/h
99 31-05-2014 08:10:00 7.8 C 7.67 g/m*3 7.8 C 0 km/h
100 31-05-2014 08:15:00 8.1 C 7.82 g/m*3 8.1 C 0 km/h
Sensor: Nr:Datum:Temp:Abs-Feuchte:Windchill:Wind:
Aussen-T/F 101 31-05-2014 08:20:00 8.4 C 7.8 g/m*3 8.4 C 0 km/h
102 31-05-2014 08:25:00 8.6 C 7.91 g/m*3 8.6 C 0 km/h
103 31-05-2014 08:30:00 8.8 C 7.83 g/m*3 8.8 C 0 km/h
104 31-05-2014 08:35:00 8.9 C 7.88 g/m*3 8.9 C 0 km/h
105 31-05-2014 08:40:00 9.1 C 7.99 g/m*3 9.1 C 0 km/h
106 31-05-2014 08:45:00 9.3 C 8.09 g/m*3 9.3 C 0 km/h
107 31-05-2014 08:50:00 9.5 C 8.19 g/m*3 9.5 C 0 km/h
108 31-05-2014 08:55:00 9.8 C 8.26 g/m*3 9.8 C 0 km/h
109 31-05-2014 09:00:00 10.1 C 8.32 g/m*3 10.1 C 0 km/h
110 31-05-2014 09:05:00 10.3 C 8.33 g/m*3 10.3 C 1.6 km/h
111 31-05-2014 09:10:00 10.5 C 8.44 g/m*3 10.5 C 0 km/h
112 31-05-2014 09:15:00 10.3 C 8.33 g/m*3 10.3 C 0 km/h
113 31-05-2014 09:20:00 10.2 C 8.37 g/m*3 10.2 C 0 km/h
114 31-05-2014 09:25:00 10.2 C 8.47 g/m*3 10.2 C 0 km/h
115 31-05-2014 09:30:00 10.2 C 8.56 g/m*3 10.2 C 0 km/h
116 31-05-2014 09:35:00 10.2 C 8.56 g/m*3 10.2 C 0 km/h
117 31-05-2014 09:40:00 10.3 C 8.62 g/m*3 10.3 C 0 km/h
118 31-05-2014 09:45:00 10.4 C 8.58 g/m*3 10.4 C 0 km/h
119 31-05-2014 09:50:00 10.7 C 8.74 g/m*3 10.7 C 0 km/h
120 31-05-2014 09:55:00 11.2 C 8.92 g/m*3 11.2 C 1.6 km/h
121 31-05-2014 10:00:00 11.9 C 9.11 g/m*3 11.9 C 0 km/h
122 31-05-2014 10:05:00 12.5 C 9.24 g/m*3 12.5 C 0 km/h
123 31-05-2014 10:10:00 12.9 C 9.24 g/m*3 12.9 C 0 km/h
124 31-05-2014 10:15:00 13.2 C 9.42 g/m*3 13.2 C 0 km/h
125 31-05-2014 10:20:00 13.7 C 9.59 g/m*3 13.7 C 0 km/h
Sensor: Nr:Datum:Temp:Abs-Feuchte:Windchill:Wind:
Aussen-T/F 126 31-05-2014 10:25:00 13.9 C 9.59 g/m*3 13.9 C 0 km/h
127 31-05-2014 10:30:00 14.1 C 9.95 g/m*3 14.1 C 0 km/h
128 31-05-2014 10:35:00 14.2 C 9.77 g/m*3 14.2 C 1.6 km/h
129 31-05-2014 10:40:00 14.5 C 9.58 g/m*3 14.5 C 0 km/h
130 31-05-2014 10:45:00 14.8 C 9.37 g/m*3 14.8 C 1.6 km/h
131 31-05-2014 10:50:00 15.3 C 9.92 g/m*3 15.3 C 0 km/h
132 31-05-2014 10:55:00 15.6 C 10.24 g/m*3 15.6 C 0 km/h
133 31-05-2014 11:00:00 15.9 C 9.34 g/m*3 15.9 C 1.6 km/h
134 31-05-2014 11:05:00 16.3 C 9.71 g/m*3 16.3 C 4.8 km/h
135 31-05-2014 11:10:00 16.9 C 10.07 g/m*3 16.9 C 6.4 km/h
136 31-05-2014 11:15:00 17.3 C 10.16 g/m*3 17.3 C 4.8 km/h
137 31-05-2014 11:20:00 17.6 C 9.9 g/m*3 17.6 C 3.2 km/h
138 31-05-2014 11:25:00 17.6 C 10.05 g/m*3 17.6 C 1.6 km/h
139 31-05-2014 11:30:00 17.7 C 9.66 g/m*3 17.7 C 6.4 km/h
140 31-05-2014 11:35:00 17.9 C 10.54 g/m*3 17.9 C 1.6 km/h
141 31-05-2014 11:40:00 18 C 10.44 g/m*3 18 C 3.2 km/h
142 31-05-2014 11:45:00 18.3 C 9.69 g/m*3 18.3 C 3.2 km/h
143 31-05-2014 11:50:00 18.7 C 9.45 g/m*3 18.7 C 8.1 km/h
144 31-05-2014 11:55:00 18.8 C 9.82 g/m*3 18.8 C 4.8 km/h
145 31-05-2014 12:00:00 19.2 C 9.56 g/m*3 19.2 C 8.1 km/h
146 31-05-2014 12:05:00 19.6 C 9.62 g/m*3 19.6 C 4.8 km/h
147 31-05-2014 12:10:00 19.7 C 8.83 g/m*3 19.7 C 9.7 km/h
148 31-05-2014 12:15:00 19.6 C 9.12 g/m*3 19.6 C 8.1 km/h
149 31-05-2014 12:20:00 19.3 C 8.79 g/m*3 19.3 C 3.2 km/h
150 31-05-2014 12:25:00 18.9 C 8.91 g/m*3 18.9 C 8.1 km/h
Sensor: Nr:Datum:Temp:Abs-Feuchte:Windchill:Wind:
Aussen-T/F 151 31-05-2014 12:30:00 18.8 C 8.54 g/m*3 18.8 C 6.4 km/h
152 31-05-2014 12:35:00 18.8 C 8.54 g/m*3 18.8 C 4.8 km/h
153 31-05-2014 12:40:00 18.9 C 8.75 g/m*3 18.9 C 9.7 km/h
154 31-05-2014 12:45:00 18.7 C 8.81 g/m*3 18.7 C 8.1 km/h
155 31-05-2014 12:50:00 18.6 C 8.59 g/m*3 18.6 C 8.1 km/h
156 31-05-2014 12:55:00 18.8 C 9.02 g/m*3 18.8 C 9.7 km/h
157 31-05-2014 13:00:00 19.2 C 9.07 g/m*3 19.2 C 6.4 km/h
158 31-05-2014 13:05:00 19.4 C 8.84 g/m*3 19.4 C 9.7 km/h
159 31-05-2014 13:10:00 19.4 C 8.51 g/m*3 19.4 C 8.1 km/h
160 31-05-2014 13:15:00 19.4 C 8.84 g/m*3 19.4 C 4.8 km/h
161 31-05-2014 13:20:00 19.7 C 8.49 g/m*3 19.7 C 4.8 km/h
162 31-05-2014 13:25:00 19.9 C 8.59 g/m*3 19.9 C 3.2 km/h
163 31-05-2014 13:30:00 20.2 C 9.09 g/m*3 20.2 C 4.8 km/h
164 31-05-2014 13:35:00 20.4 C 9.38 g/m*3 20.4 C 6.4 km/h
165 31-05-2014 13:40:00 20.7 C 9.36 g/m*3 20.7 C 9.7 km/h
166 31-05-2014 13:45:00 20.8 C 8.51 g/m*3 20.8 C 6.4 km/h
167 31-05-2014 13:50:00 21.1 C 9.4 g/m*3 21.1 C 6.4 km/h
168 31-05-2014 13:55:00 20.8 C 7.97 g/m*3 20.8 C 3.2 km/h
169 31-05-2014 14:00:00 20.5 C 8.19 g/m*3 20.5 C 6.4 km/h
170 31-05-2014 14:05:00 20.1 C 8.17 g/m*3 20.1 C 9.7 km/h
171 31-05-2014 14:10:00 19.8 C 8.37 g/m*3 19.8 C 6.4 km/h
172 31-05-2014 14:15:00 19.6 C 8.27 g/m*3 19.6 C 6.4 km/h
173 31-05-2014 14:20:00 19.4 C 8.34 g/m*3 19.4 C 6.4 km/h
174 31-05-2014 14:25:00 19.3 C 8.29 g/m*3 19.3 C 3.2 km/h
175 31-05-2014 14:30:00 19.3 C 8.63 g/m*3 19.3 C 3.2 km/h
Sensor: Nr:Datum:Temp:Abs-Feuchte:Windchill:Wind:
Aussen-T/F 176 31-05-2014 14:35:00 19.3 C 8.13 g/m*3 19.3 C 3.2 km/h
177 31-05-2014 14:40:00 19.3 C 7.8 g/m*3 19.3 C 4.8 km/h
178 31-05-2014 14:45:00 19.7 C 8.49 g/m*3 19.7 C 6.4 km/h
179 31-05-2014 14:50:00 20.4 C 8.67 g/m*3 20.4 C 4.8 km/h
180 31-05-2014 14:55:00 21 C 8.24 g/m*3 21 C 6.4 km/h
181 31-05-2014 15:00:00 21.3 C 8.02 g/m*3 21.3 C 4.8 km/h
182 31-05-2014 15:05:00 21.1 C 7.92 g/m*3 21.1 C 4.8 km/h
183 31-05-2014 15:10:00 20.8 C 8.15 g/m*3 20.8 C 3.2 km/h
184 31-05-2014 15:15:00 20.6 C 8.23 g/m*3 20.6 C 4.8 km/h
185 31-05-2014 15:20:00 20.5 C 8.19 g/m*3 20.5 C 6.4 km/h
186 31-05-2014 15:25:00 20.3 C 8.27 g/m*3 20.3 C 6.4 km/h
187 31-05-2014 15:30:00 20.2 C 9.27 g/m*3 20.2 C 4.8 km/h
188 31-05-2014 15:35:00 19.7 C 10.19 g/m*3 19.7 C 0 km/h
189 31-05-2014 15:40:00 19.7 C 10.02 g/m*3 19.7 C 0 km/h
190 31-05-2014 15:45:00 20.3 C 8.62 g/m*3 20.3 C 1.6 km/h
191 31-05-2014 15:50:00 20.7 C 7.56 g/m*3 20.7 C 4.8 km/h
192 31-05-2014 15:55:00 20.6 C 10.2 g/m*3 20.6 C 4.8 km/h
193 31-05-2014 16:00:00 20.3 C 8.09 g/m*3 20.3 C 8.1 km/h
194 31-05-2014 16:05:00 20.3 C 8.44 g/m*3 20.3 C 1.6 km/h
195 31-05-2014 16:10:00 20.3 C 8.62 g/m*3 20.3 C 6.4 km/h
196 31-05-2014 16:15:00 20.3 C 9.5 g/m*3 20.3 C 4.8 km/h
197 31-05-2014 16:20:00 19.7 C 9.68 g/m*3 19.7 C 1.6 km/h
198 31-05-2014 16:25:00 19.2 C 9.89 g/m*3 19.2 C 3.2 km/h
199 31-05-2014 16:30:00 18.9 C 8.42 g/m*3 18.9 C 4.8 km/h
200 31-05-2014 16:35:00 19.1 C 8.52 g/m*3 19.1 C 6.4 km/h
Sensor: Nr:Datum:Temp:Abs-Feuchte:Windchill:Wind:
Aussen-T/F 201 31-05-2014 16:40:00 19.3 C 9.12 g/m*3 19.3 C 4.8 km/h
202 31-05-2014 16:45:00 18.8 C 10.47 g/m*3 18.8 C 0 km/h
203 31-05-2014 16:50:00 18.4 C 9.75 g/m*3 18.4 C 1.6 km/h
204 31-05-2014 16:55:00 18.2 C 10.57 g/m*3 18.2 C 0 km/h
205 31-05-2014 17:00:00 18 C 10.75 g/m*3 18 C 0 km/h
206 31-05-2014 17:05:00 17.9 C 10.38 g/m*3 17.9 C 0 km/h
207 31-05-2014 17:10:00 18.4 C 10.54 g/m*3 18.4 C 3.2 km/h
208 31-05-2014 17:15:00 19.9 C 9.11 g/m*3 19.9 C 11.3 km/h
209 31-05-2014 17:20:00 20.9 C 9.11 g/m*3 20.9 C 8.1 km/h
210 31-05-2014 17:25:00 21.2 C 8.71 g/m*3 21.2 C 8.1 km/h
211 31-05-2014 17:30:00 20.9 C 8.38 g/m*3 20.9 C 4.8 km/h
212 31-05-2014 17:35:00 20.8 C 8.33 g/m*3 20.8 C 9.7 km/h
213 31-05-2014 17:40:00 20.8 C 8.51 g/m*3 20.8 C 9.7 km/h
214 31-05-2014 17:45:00 20.8 C 8.69 g/m*3 20.8 C 4.8 km/h
215 31-05-2014 17:50:00 20.7 C 8.64 g/m*3 20.7 C 4.8 km/h
216 31-05-2014 17:55:00 20.4 C 8.49 g/m*3 20.4 C 8.1 km/h
217 31-05-2014 18:00:00 20.3 C 8.97 g/m*3 20.3 C 4.8 km/h
218 31-05-2014 18:05:00 20.2 C 8.92 g/m*3 20.2 C 4.8 km/h
219 31-05-2014 18:10:00 20.2 C 8.39 g/m*3 20.2 C 6.4 km/h
220 31-05-2014 18:15:00 20.2 C 8.39 g/m*3 20.2 C 6.4 km/h
221 31-05-2014 18:20:00 20.4 C 8.67 g/m*3 20.4 C 4.8 km/h
222 31-05-2014 18:25:00 21 C 8.61 g/m*3 21 C 4.8 km/h
223 31-05-2014 18:30:00 21.6 C 8.16 g/m*3 21.6 C 4.8 km/h
224 31-05-2014 18:35:00 21.7 C 8.39 g/m*3 21.7 C 4.8 km/h
225 31-05-2014 18:40:00 21.4 C 10.31 g/m*3 21.4 C 3.2 km/h
Sensor: Nr:Datum:Temp:Abs-Feuchte:Windchill:Wind:
Aussen-T/F 226 31-05-2014 18:45:00 21.4 C 8.44 g/m*3 21.4 C 6.4 km/h
227 31-05-2014 18:50:00 21.7 C 8.01 g/m*3 21.7 C 6.4 km/h
228 31-05-2014 18:55:00 21.9 C 8.3 g/m*3 21.9 C 6.4 km/h
229 31-05-2014 19:00:00 22.1 C 8.59 g/m*3 22.1 C 11.3 km/h
230 31-05-2014 19:05:00 22 C 8.73 g/m*3 22 C 9.7 km/h
231 31-05-2014 19:10:00 21.8 C 8.25 g/m*3 21.8 C 9.7 km/h
232 31-05-2014 19:15:00 21.7 C 8.58 g/m*3 21.7 C 6.4 km/h
233 31-05-2014 19:20:00 21.5 C 8.3 g/m*3 21.5 C 6.4 km/h
234 31-05-2014 19:25:00 21.3 C 8.2 g/m*3 21.3 C 6.4 km/h
235 31-05-2014 19:30:00 21 C 8.24 g/m*3 21 C 4.8 km/h
236 31-05-2014 19:35:00 20.6 C 7.87 g/m*3 20.6 C 8.1 km/h
237 31-05-2014 19:40:00 20.4 C 7.96 g/m*3 20.4 C 9.7 km/h
238 31-05-2014 19:45:00 20.2 C 7.87 g/m*3 20.2 C 4.8 km/h
239 31-05-2014 19:50:00 20.1 C 7.82 g/m*3 20.1 C 4.8 km/h
240 31-05-2014 19:55:00 19.9 C 8.08 g/m*3 19.9 C 1.6 km/h
241 31-05-2014 20:00:00 19.7 C 9.85 g/m*3 19.7 C 0 km/h
242 31-05-2014 20:05:00 18.9 C 10.37 g/m*3 18.9 C 0 km/h
243 31-05-2014 20:10:00 18.2 C 10.41 g/m*3 18.2 C 0 km/h
244 31-05-2014 20:15:00 17.7 C 10.26 g/m*3 17.7 C 0 km/h
245 31-05-2014 20:20:00 17.3 C 10.16 g/m*3 17.3 C 0 km/h
246 31-05-2014 20:25:00 16.9 C 10.07 g/m*3 16.9 C 0 km/h
247 31-05-2014 20:30:00 16.7 C 10.37 g/m*3 16.7 C 0 km/h
248 31-05-2014 20:35:00 16.4 C 10.19 g/m*3 16.4 C 1.6 km/h
249 31-05-2014 20:40:00 16.2 C 10.07 g/m*3 16.2 C 1.6 km/h
250 31-05-2014 20:45:00 16 C 10.08 g/m*3 16 C 0 km/h
Sensor: Nr:Datum:Temp:Abs-Feuchte:Windchill:Wind:
Aussen-T/F 251 31-05-2014 20:50:00 15.8 C 9.96 g/m*3 15.8 C 0 km/h
252 31-05-2014 20:55:00 15.6 C 9.97 g/m*3 15.6 C 0 km/h
253 31-05-2014 21:00:00 15.3 C 9.79 g/m*3 15.3 C 0 km/h
254 31-05-2014 21:05:00 15.2 C 9.73 g/m*3 15.2 C 0 km/h
255 31-05-2014 21:10:00 15 C 9.75 g/m*3 15 C 1.6 km/h
256 31-05-2014 21:15:00 14.8 C 9.63 g/m*3 14.8 C 1.6 km/h
257 31-05-2014 21:20:00 14.7 C 9.57 g/m*3 14.7 C 1.6 km/h
258 31-05-2014 21:25:00 14.4 C 9.64 g/m*3 14.4 C 0 km/h
259 31-05-2014 21:30:00 14.3 C 9.58 g/m*3 14.3 C 1.6 km/h
260 31-05-2014 21:35:00 14.2 C 9.52 g/m*3 14.2 C 1.6 km/h
261 31-05-2014 21:40:00 14.1 C 9.59 g/m*3 14.1 C 1.6 km/h
262 31-05-2014 21:45:00 13.9 C 9.47 g/m*3 13.9 C 0 km/h
263 31-05-2014 21:50:00 13.8 C 9.41 g/m*3 13.8 C 0 km/h
264 31-05-2014 21:55:00 13.8 C 9.29 g/m*3 13.8 C 0 km/h
265 31-05-2014 22:00:00 13.7 C 9.35 g/m*3 13.7 C 0 km/h
266 31-05-2014 22:05:00 13.7 C 9.35 g/m*3 13.7 C 0 km/h
267 31-05-2014 22:10:00 13.6 C 9.18 g/m*3 13.6 C 0 km/h
268 31-05-2014 22:15:00 13.6 C 9.3 g/m*3 13.6 C 0 km/h
269 31-05-2014 22:20:00 13.6 C 9.3 g/m*3 13.6 C 0 km/h
270 31-05-2014 22:25:00 13.5 C 9.36 g/m*3 13.5 C 0 km/h
271 31-05-2014 22:30:00 13.5 C 9.24 g/m*3 13.5 C 0 km/h
272 31-05-2014 22:35:00 13.5 C 9.36 g/m*3 13.5 C 0 km/h
273 31-05-2014 22:40:00 13.4 C 9.42 g/m*3 13.4 C 0 km/h
274 31-05-2014 22:45:00 13.4 C 9.53 g/m*3 13.4 C 0 km/h
275 31-05-2014 22:50:00 13.4 C 9.3 g/m*3 13.4 C 0 km/h
Sensor: Nr:Datum:Temp:Abs-Feuchte:Windchill:Wind:
Aussen-T/F 276 31-05-2014 22:55:00 13.4 C 9.18 g/m*3 13.4 C 0 km/h
277 31-05-2014 23:00:00 13.4 C 9.18 g/m*3 13.4 C 0 km/h
278 31-05-2014 23:05:00 13.4 C 9.18 g/m*3 13.4 C 0 km/h
279 31-05-2014 23:10:00 13.3 C 9.13 g/m*3 13.3 C 0 km/h
280 31-05-2014 23:15:00 13.3 C 9.13 g/m*3 13.3 C 0 km/h
281 31-05-2014 23:20:00 13.3 C 9.24 g/m*3 13.3 C 0 km/h
282 31-05-2014 23:25:00 13.3 C 9.24 g/m*3 13.3 C 0 km/h
283 31-05-2014 23:30:00 13.2 C 9.3 g/m*3 13.2 C 0 km/h
284 31-05-2014 23:35:00 13.1 C 9.36 g/m*3 13.1 C 0 km/h
285 31-05-2014 23:40:00 13 C 9.19 g/m*3 13 C 0 km/h
286 31-05-2014 23:45:00 12.9 C 9.13 g/m*3 12.9 C 0 km/h
287 31-05-2014 23:50:00 12.8 C 9.07 g/m*3 12.8 C 0 km/h
288 31-05-2014 23:55:00 12.7 C 9.13 g/m*3 12.7 C 0 km/h
289 01-06-2014 00:00:00 12.6 C 8.96 g/m*3 12.6 C 0 km/h
290 01-06-2014 00:05:00 12.4 C 8.96 g/m*3 12.4 C 0 km/h
291 01-06-2014 00:10:00 12.4 C 8.96 g/m*3 12.4 C 0 km/h
292 01-06-2014 00:15:00 12.4 C 8.96 g/m*3 12.4 C 0 km/h
293 01-06-2014 00:20:00 12.4 C 9.07 g/m*3 12.4 C 0 km/h
294 01-06-2014 00:25:00 12.3 C 8.9 g/m*3 12.3 C 0 km/h
295 01-06-2014 00:30:00 12.4 C 9.07 g/m*3 12.4 C 0 km/h
296 01-06-2014 00:35:00 12.4 C 9.07 g/m*3 12.4 C 0 km/h
297 01-06-2014 00:40:00 12.4 C 9.07 g/m*3 12.4 C 0 km/h
298 01-06-2014 00:45:00 12.4 C 9.07 g/m*3 12.4 C 0 km/h
299 01-06-2014 00:50:00 12.4 C 8.96 g/m*3 12.4 C 0 km/h
300 01-06-2014 00:55:00 12.3 C 8.9 g/m*3 12.3 C 0 km/h
Sensor: Nr:Datum:Temp:Abs-Feuchte:Windchill:Wind:
Aussen-T/F 301 01-06-2014 01:00:00 12.3 C 8.9 g/m*3 12.3 C 3.2 km/h
302 01-06-2014 01:05:00 12.3 C 8.9 g/m*3 12.3 C 0 km/h
303 01-06-2014 01:10:00 12.2 C 8.96 g/m*3 12.2 C 0 km/h
304 01-06-2014 01:15:00 12.2 C 8.96 g/m*3 12.2 C 0 km/h
305 01-06-2014 01:20:00 12.2 C 8.96 g/m*3 12.2 C 0 km/h
306 01-06-2014 01:25:00 12.3 C 9.01 g/m*3 12.3 C 0 km/h
307 01-06-2014 01:30:00 12.3 C 9.01 g/m*3 12.3 C 0 km/h
308 01-06-2014 01:35:00 12.3 C 9.01 g/m*3 12.3 C 0 km/h
309 01-06-2014 01:40:00 12.2 C 8.96 g/m*3 12.2 C 0 km/h
310 01-06-2014 01:45:00 12.1 C 9.01 g/m*3 12.1 C 0 km/h
311 01-06-2014 01:50:00 12.1 C 9.01 g/m*3 12.1 C 0 km/h
312 01-06-2014 01:55:00 12 C 8.85 g/m*3 12 C 0 km/h
313 01-06-2014 02:00:00 11.9 C 8.9 g/m*3 11.9 C 1.6 km/h
314 01-06-2014 02:05:00 11.8 C 8.84 g/m*3 11.8 C 0 km/h
315 01-06-2014 02:10:00 11.8 C 8.84 g/m*3 11.8 C 0 km/h
316 01-06-2014 02:15:00 11.7 C 8.79 g/m*3 11.7 C 0 km/h
317 01-06-2014 02:20:00 11.6 C 8.83 g/m*3 11.6 C 0 km/h
318 01-06-2014 02:25:00 11.5 C 8.78 g/m*3 11.5 C 0 km/h
319 01-06-2014 02:30:00 11.4 C 8.72 g/m*3 11.4 C 0 km/h
320 01-06-2014 02:35:00 11.3 C 8.67 g/m*3 11.3 C 0 km/h
321 01-06-2014 02:40:00 11.3 C 8.67 g/m*3 11.3 C 0 km/h
322 01-06-2014 02:45:00 11.2 C 8.62 g/m*3 11.2 C 0 km/h
323 01-06-2014 02:50:00 11.1 C 8.56 g/m*3 11.1 C 0 km/h
324 01-06-2014 02:55:00 11 C 8.51 g/m*3 11 C 0 km/h
325 01-06-2014 03:00:00 10.9 C 8.45 g/m*3 10.9 C 0 km/h
Sensor: Nr:Datum:Temp:Abs-Feuchte:Windchill:Wind:
Aussen-T/F 326 01-06-2014 03:05:00 10.8 C 8.5 g/m*3 10.8 C 0 km/h
327 01-06-2014 03:10:00 10.6 C 8.49 g/m*3 10.6 C 0 km/h
328 01-06-2014 03:15:00 10.5 C 8.34 g/m*3 10.5 C 0 km/h
329 01-06-2014 03:20:00 10.4 C 8.38 g/m*3 10.4 C 0 km/h
330 01-06-2014 03:25:00 10.3 C 8.33 g/m*3 10.3 C 0 km/h
331 01-06-2014 03:30:00 10.3 C 8.43 g/m*3 10.3 C 0 km/h
332 01-06-2014 03:35:00 10.3 C 8.43 g/m*3 10.3 C 0 km/h
333 01-06-2014 03:40:00 10.3 C 8.43 g/m*3 10.3 C 1.6 km/h
334 01-06-2014 03:45:00 10.4 C 8.48 g/m*3 10.4 C 1.6 km/h
335 01-06-2014 03:50:00 10.4 C 8.48 g/m*3 10.4 C 0 km/h
336 01-06-2014 03:55:00 10.4 C 8.48 g/m*3 10.4 C 0 km/h
337 01-06-2014 04:00:00 10.4 C 8.48 g/m*3 10.4 C 0 km/h
338 01-06-2014 04:05:00 10.3 C 8.43 g/m*3 10.3 C 0 km/h
339 01-06-2014 04:10:00 10.3 C 8.52 g/m*3 10.3 C 0 km/h
340 01-06-2014 04:15:00 10.2 C 8.47 g/m*3 10.2 C 0 km/h
341 01-06-2014 04:20:00 10.2 C 8.47 g/m*3 10.2 C 0 km/h
342 01-06-2014 04:25:00 10.2 C 8.47 g/m*3 10.2 C 0 km/h
343 01-06-2014 04:30:00 10.2 C 8.47 g/m*3 10.2 C 0 km/h
344 01-06-2014 04:35:00 10.2 C 8.56 g/m*3 10.2 C 0 km/h
345 01-06-2014 04:40:00 10.2 C 8.56 g/m*3 10.2 C 0 km/h
346 01-06-2014 04:45:00 10.2 C 8.56 g/m*3 10.2 C 0 km/h
347 01-06-2014 04:50:00 10.2 C 8.56 g/m*3 10.2 C 0 km/h
348 01-06-2014 04:55:00 10.3 C 8.62 g/m*3 10.3 C 0 km/h
349 01-06-2014 05:00:00 10.3 C 8.62 g/m*3 10.3 C 0 km/h
350 01-06-2014 05:05:00 10.3 C 8.62 g/m*3 10.3 C 0 km/h
Sensor: Nr:Datum:Temp:Abs-Feuchte:Windchill:Wind:
Aussen-T/F 351 01-06-2014 05:10:00 10.3 C 8.62 g/m*3 10.3 C 0 km/h
352 01-06-2014 05:15:00 10.2 C 8.56 g/m*3 10.2 C 0 km/h
353 01-06-2014 05:20:00 10.2 C 8.56 g/m*3 10.2 C 0 km/h
354 01-06-2014 05:25:00 10.3 C 8.71 g/m*3 10.3 C 0 km/h
355 01-06-2014 05:30:00 10.3 C 8.71 g/m*3 10.3 C 0 km/h
356 01-06-2014 05:35:00 10.3 C 8.71 g/m*3 10.3 C 0 km/h
357 01-06-2014 05:40:00 10.6 C 8.78 g/m*3 10.6 C 1.6 km/h
358 01-06-2014 05:45:00 10.7 C 8.84 g/m*3 10.7 C 1.6 km/h
359 01-06-2014 05:50:00 10.8 C 8.8 g/m*3 10.8 C 0 km/h
360 01-06-2014 05:55:00 10.9 C 8.85 g/m*3 10.9 C 0 km/h
361 01-06-2014 06:00:00 11.1 C 8.96 g/m*3 11.1 C 1.6 km/h
362 01-06-2014 06:05:00 11.2 C 8.92 g/m*3 11.2 C 1.6 km/h
363 01-06-2014 06:10:00 11.2 C 8.92 g/m*3 11.2 C 0 km/h
364 01-06-2014 06:15:00 11.3 C 8.98 g/m*3 11.3 C 1.6 km/h
365 01-06-2014 06:20:00 11.4 C 8.83 g/m*3 11.4 C 6.4 km/h
366 01-06-2014 06:25:00 11.4 C 8.83 g/m*3 11.4 C 0 km/h
367 01-06-2014 06:30:00 11.6 C 8.94 g/m*3 11.6 C 3.2 km/h
368 01-06-2014 06:35:00 11.6 C 8.73 g/m*3 11.6 C 0 km/h
369 01-06-2014 06:40:00 11.7 C 8.79 g/m*3 11.7 C 3.2 km/h
370 01-06-2014 06:45:00 11.8 C 8.84 g/m*3 11.8 C 1.6 km/h
371 01-06-2014 06:50:00 11.8 C 8.74 g/m*3 11.8 C 0 km/h
372 01-06-2014 06:55:00 11.8 C 8.84 g/m*3 11.8 C 3.2 km/h
373 01-06-2014 07:00:00 11.8 C 8.84 g/m*3 11.8 C 4.8 km/h
374 01-06-2014 07:05:00 11.8 C 8.74 g/m*3 11.8 C 1.6 km/h
375 01-06-2014 07:10:00 11.9 C 8.9 g/m*3 11.9 C 0 km/h
Sensor: Nr:Datum:Temp:Abs-Feuchte:Windchill:Wind:
Aussen-T/F 376 01-06-2014 07:15:00 11.9 C 8.9 g/m*3 11.9 C 0 km/h
377 01-06-2014 07:20:00 12 C 8.85 g/m*3 12 C 0 km/h
378 01-06-2014 07:25:00 12.1 C 8.9 g/m*3 12.1 C 0 km/h
379 01-06-2014 07:30:00 12.2 C 9.06 g/m*3 12.2 C 0 km/h
380 01-06-2014 07:35:00 12.3 C 9.12 g/m*3 12.3 C 6.4 km/h
381 01-06-2014 07:40:00 12.3 C 9.01 g/m*3 12.3 C 1.6 km/h
382 01-06-2014 07:45:00 12.4 C 8.96 g/m*3 12.4 C 1.6 km/h
383 01-06-2014 07:50:00 12.4 C 8.96 g/m*3 12.4 C 0 km/h
384 01-06-2014 07:55:00 12.4 C 8.96 g/m*3 12.4 C 1.6 km/h
385 01-06-2014 08:00:00 12.4 C 8.85 g/m*3 12.4 C 1.6 km/h
386 01-06-2014 08:05:00 12.6 C 9.07 g/m*3 12.6 C 0 km/h
387 01-06-2014 08:10:00 12.8 C 9.18 g/m*3 12.8 C 3.2 km/h
388 01-06-2014 08:15:00 12.9 C 9.13 g/m*3 12.9 C 3.2 km/h
389 01-06-2014 08:20:00 12.9 C 9.02 g/m*3 12.9 C 3.2 km/h
390 01-06-2014 08:25:00 13 C 9.3 g/m*3 13 C 0 km/h
391 01-06-2014 08:30:00 13.1 C 9.24 g/m*3 13.1 C 3.2 km/h
392 01-06-2014 08:35:00 13.2 C 9.19 g/m*3 13.2 C 0 km/h
393 01-06-2014 08:40:00 13.2 C 9.19 g/m*3 13.2 C 0 km/h
394 01-06-2014 08:45:00 13.2 C 9.19 g/m*3 13.2 C 1.6 km/h
395 01-06-2014 08:50:00 13.3 C 9.36 g/m*3 13.3 C 0 km/h
396 01-06-2014 08:55:00 13.5 C 9.47 g/m*3 13.5 C 1.6 km/h
397 01-06-2014 09:00:00 13.7 C 9.47 g/m*3 13.7 C 3.2 km/h
398 01-06-2014 09:05:00 13.7 C 9.47 g/m*3 13.7 C 3.2 km/h
399 01-06-2014 09:10:00 13.7 C 9.47 g/m*3 13.7 C 1.6 km/h
400 01-06-2014 09:15:00 13.7 C 9.47 g/m*3 13.7 C 3.2 km/h
Sensor: Nr:Datum:Temp:Abs-Feuchte:Windchill:Wind:
Aussen-T/F 401 01-06-2014 09:20:00 13.7 C 9.47 g/m*3 13.7 C 1.6 km/h
402 01-06-2014 09:25:00 14.1 C 9.59 g/m*3 14.1 C 3.2 km/h
403 01-06-2014 09:30:00 14.1 C 9.47 g/m*3 14.1 C 3.2 km/h
404 01-06-2014 09:35:00 14 C 9.29 g/m*3 14 C 3.2 km/h
405 01-06-2014 09:40:00 14.1 C 9.47 g/m*3 14.1 C 1.6 km/h
406 01-06-2014 09:45:00 14.2 C 9.65 g/m*3 14.2 C 3.2 km/h
407 01-06-2014 09:50:00 14.4 C 9.77 g/m*3 14.4 C 1.6 km/h
408 01-06-2014 09:55:00 14.7 C 9.57 g/m*3 14.7 C 3.2 km/h
409 01-06-2014 10:00:00 15.1 C 9.8 g/m*3 15.1 C 3.2 km/h
410 01-06-2014 10:05:00 15.5 C 9.78 g/m*3 15.5 C 3.2 km/h
411 01-06-2014 10:10:00 15.9 C 9.62 g/m*3 15.9 C 4.8 km/h
412 01-06-2014 10:15:00 16.1 C 9.6 g/m*3 16.1 C 4.8 km/h
413 01-06-2014 10:20:00 16.3 C 9.85 g/m*3 16.3 C 1.6 km/h
414 01-06-2014 10:25:00 16.4 C 9.63 g/m*3 16.4 C 3.2 km/h
415 01-06-2014 10:30:00 16.5 C 9.55 g/m*3 16.5 C 4.8 km/h
416 01-06-2014 10:35:00 16.5 C 9.69 g/m*3 16.5 C 4.8 km/h
417 01-06-2014 10:40:00 16.7 C 9.52 g/m*3 16.7 C 4.8 km/h
418 01-06-2014 10:45:00 16.9 C 9.78 g/m*3 16.9 C 8.1 km/h
419 01-06-2014 10:50:00 17.1 C 9.61 g/m*3 17.1 C 4.8 km/h
420 01-06-2014 10:55:00 17.3 C 9.87 g/m*3 17.3 C 6.4 km/h
421 01-06-2014 11:00:00 17.4 C 9.19 g/m*3 17.4 C 9.7 km/h
422 01-06-2014 11:05:00 17.6 C 9.6 g/m*3 17.6 C 9.7 km/h
423 01-06-2014 11:10:00 17.8 C 9.71 g/m*3 17.8 C 6.4 km/h
424 01-06-2014 11:15:00 18.1 C 9.58 g/m*3 18.1 C 4.8 km/h
425 01-06-2014 11:20:00 18.2 C 9.33 g/m*3 18.2 C 9.7 km/h
Sensor: Nr:Datum:Temp:Abs-Feuchte:Windchill:Wind:
Aussen-T/F 426 01-06-2014 11:25:00 18.3 C 9.07 g/m*3 18.3 C 8.1 km/h
427 01-06-2014 11:30:00 18.3 C 9.85 g/m*3 18.3 C 8.1 km/h
428 01-06-2014 11:35:00 18.4 C 9.44 g/m*3 18.4 C 9.7 km/h
429 01-06-2014 11:40:00 18.4 C 9.91 g/m*3 18.4 C 4.8 km/h
430 01-06-2014 11:45:00 18.6 C 9.71 g/m*3 18.6 C 4.8 km/h
431 01-06-2014 11:50:00 18.8 C 9.34 g/m*3 18.8 C 8.1 km/h
432 01-06-2014 11:55:00 19.1 C 9.84 g/m*3 19.1 C 4.8 km/h
433 01-06-2014 12:00:00 19.2 C 9.56 g/m*3 19.2 C 9.7 km/h
434 01-06-2014 12:05:00 19.2 C 9.73 g/m*3 19.2 C 8.1 km/h
435 01-06-2014 12:10:00 19.4 C 9.84 g/m*3 19.4 C 11.3 km/h
436 01-06-2014 12:15:00 19.6 C 9.62 g/m*3 19.6 C 6.4 km/h
437 01-06-2014 12:20:00 19.7 C 10.19 g/m*3 19.7 C 6.4 km/h
438 01-06-2014 12:25:00 19.9 C 8.93 g/m*3 19.9 C 9.7 km/h
439 01-06-2014 12:30:00 19.7 C 9.51 g/m*3 19.7 C 8.1 km/h
440 01-06-2014 12:35:00 20 C 9.51 g/m*3 20 C 4.8 km/h
441 01-06-2014 12:40:00 20.3 C 9.5 g/m*3 20.3 C 11.3 km/h
442 01-06-2014 12:45:00 20.3 C 9.15 g/m*3 20.3 C 8.1 km/h
443 01-06-2014 12:50:00 20.4 C 9.73 g/m*3 20.4 C 11.3 km/h
444 01-06-2014 12:55:00 20.7 C 9.18 g/m*3 20.7 C 4.8 km/h
445 01-06-2014 13:00:00 20.6 C 9.13 g/m*3 20.6 C 11.3 km/h
446 01-06-2014 13:05:00 20.4 C 9.2 g/m*3 20.4 C 9.7 km/h
447 01-06-2014 13:10:00 20.5 C 9.43 g/m*3 20.5 C 6.4 km/h
448 01-06-2014 13:15:00 20.6 C 9.13 g/m*3 20.6 C 8.1 km/h
449 01-06-2014 13:20:00 20.7 C 9.36 g/m*3 20.7 C 8.1 km/h
450 01-06-2014 13:25:00 20.6 C 9.84 g/m*3 20.6 C 8.1 km/h
Sensor: Nr:Datum:Temp:Abs-Feuchte:Windchill:Wind:
Aussen-T/F 451 01-06-2014 13:30:00 20.8 C 8.87 g/m*3 20.8 C 8.1 km/h
452 01-06-2014 13:35:00 21.1 C 10.32 g/m*3 21.1 C 8.1 km/h
453 01-06-2014 13:40:00 21.1 C 9.21 g/m*3 21.1 C 3.2 km/h
454 01-06-2014 13:45:00 21.1 C 9.03 g/m*3 21.1 C 14.5 km/h
455 01-06-2014 13:50:00 20.9 C 9.29 g/m*3 20.9 C 8.1 km/h
456 01-06-2014 13:55:00 20.7 C 9.36 g/m*3 20.7 C 9.7 km/h
457 01-06-2014 14:00:00 20.4 C 9.02 g/m*3 20.4 C 11.3 km/h
458 01-06-2014 14:05:00 20.1 C 8.87 g/m*3 20.1 C 8.1 km/h
459 01-06-2014 14:10:00 19.8 C 8.71 g/m*3 19.8 C 8.1 km/h
460 01-06-2014 14:15:00 19.8 C 8.71 g/m*3 19.8 C 11.3 km/h
461 01-06-2014 14:55:00 21.7 C 8.58 g/m*3 21.7 C 12.9 km/h
462 01-06-2014 15:00:00 21.7 C 8.58 g/m*3 21.7 C 12.9 km/h
463 01-06-2014 15:05:00 21.7 C 8.58 g/m*3 21.7 C 14.5 km/h
464 01-06-2014 15:25:00 22.1 C 8.98 g/m*3 22.1 C 8.1 km/h
465 01-06-2014 15:30:00 22.2 C 9.23 g/m*3 22.2 C 12.9 km/h
466 01-06-2014 15:35:00 22.3 C 9.28 g/m*3 22.3 C 9.7 km/h
467 01-06-2014 15:40:00 22.4 C 8.94 g/m*3 22.4 C 12.9 km/h
468 01-06-2014 15:45:00 22.3 C 8.69 g/m*3 22.3 C 11.3 km/h
469 01-06-2014 15:50:00 21.7 C 8.77 g/m*3 21.7 C 11.3 km/h
470 01-06-2014 15:55:00 21.2 C 8.71 g/m*3 21.2 C 11.3 km/h
471 01-06-2014 16:00:00 21 C 8.61 g/m*3 21 C 12.9 km/h
472 01-06-2014 16:05:00 21 C 8.98 g/m*3 21 C 9.7 km/h
473 01-06-2014 16:10:00 21 C 8.98 g/m*3 21 C 12.9 km/h
474 01-06-2014 16:30:00 20.9 C 8.74 g/m*3 20.9 C 12.9 km/h
475 01-06-2014 16:35:00 20.9 C 9.11 g/m*3 20.9 C 8.1 km/h
Sensor: Nr:Datum:Temp:Abs-Feuchte:Windchill:Wind:
Aussen-T/F 476 01-06-2014 16:40:00 21.1 C 8.84 g/m*3 21.1 C 11.3 km/h
477 01-06-2014 16:45:00 21.1 C 8.66 g/m*3 21.1 C 8.1 km/h
478 01-06-2014 16:50:00 20.9 C 8.92 g/m*3 20.9 C 11.3 km/h
479 01-06-2014 16:55:00 20.8 C 8.33 g/m*3 20.8 C 9.7 km/h
480 01-06-2014 17:00:00 20.4 C 8.49 g/m*3 20.4 C 11.3 km/h
481 01-06-2014 17:05:00 20.2 C 8.22 g/m*3 20.2 C 9.7 km/h
482 01-06-2014 17:10:00 20 C 8.47 g/m*3 20 C 11.3 km/h
483 01-06-2014 17:15:00 19.9 C 8.76 g/m*3 19.9 C 8.1 km/h
484 01-06-2014 17:20:00 19.9 C 8.59 g/m*3 19.9 C 8.1 km/h
485 01-06-2014 17:25:00 20 C 8.64 g/m*3 20 C 8.1 km/h
486 01-06-2014 17:30:00 20.4 C 8.85 g/m*3 20.4 C 6.4 km/h
487 01-06-2014 17:35:00 20.5 C 8.72 g/m*3 20.5 C 11.3 km/h
488 01-06-2014 17:40:00 20.6 C 8.41 g/m*3 20.6 C 11.3 km/h
489 01-06-2014 17:45:00 20.6 C 8.59 g/m*3 20.6 C 9.7 km/h
490 01-06-2014 17:50:00 20.3 C 8.27 g/m*3 20.3 C 14.5 km/h
491 01-06-2014 17:55:00 20.1 C 8 g/m*3 20.1 C 12.9 km/h
492 01-06-2014 18:00:00 19.9 C 8.25 g/m*3 19.9 C 6.4 km/h
493 01-06-2014 18:05:00 19.6 C 8.1 g/m*3 19.6 C 11.3 km/h
494 01-06-2014 18:10:00 19.6 C 8.44 g/m*3 19.6 C 6.4 km/h
495 01-06-2014 18:15:00 19.4 C 8.18 g/m*3 19.4 C 8.1 km/h
496 01-06-2014 18:20:00 19.3 C 8.13 g/m*3 19.3 C 9.7 km/h
497 01-06-2014 18:25:00 19.4 C 8.51 g/m*3 19.4 C 8.1 km/h
498 01-06-2014 18:30:00 19.4 C 8.01 g/m*3 19.4 C 8.1 km/h
499 01-06-2014 18:35:00 19.4 C 7.84 g/m*3 19.4 C 9.7 km/h
500 01-06-2014 18:40:00 19.4 C 8.01 g/m*3 19.4 C 8.1 km/h
Sensor: Nr:Datum:Temp:Abs-Feuchte:Windchill:Wind:
Aussen-T/F 501 01-06-2014 18:45:00 19.3 C 8.13 g/m*3 19.3 C 9.7 km/h
502 01-06-2014 18:50:00 19.2 C 8.08 g/m*3 19.2 C 9.7 km/h
503 01-06-2014 18:55:00 19.2 C 8.08 g/m*3 19.2 C 6.4 km/h
504 01-06-2014 19:00:00 19.3 C 8.13 g/m*3 19.3 C 6.4 km/h
505 01-06-2014 19:05:00 19.4 C 8.01 g/m*3 19.4 C 9.7 km/h
506 01-06-2014 19:10:00 19.3 C 7.96 g/m*3 19.3 C 6.4 km/h
507 01-06-2014 19:15:00 19.1 C 7.7 g/m*3 19.1 C 4.8 km/h
508 01-06-2014 19:20:00 19 C 8.15 g/m*3 19 C 4.8 km/h
509 01-06-2014 19:25:00 19 C 8.31 g/m*3 19 C 8.1 km/h
510 01-06-2014 19:30:00 19.1 C 8.2 g/m*3 19.1 C 6.4 km/h
511 01-06-2014 19:35:00 19.1 C 8.2 g/m*3 19.1 C 8.1 km/h
512 01-06-2014 19:40:00 19.2 C 8.24 g/m*3 19.2 C 8.1 km/h
513 01-06-2014 19:45:00 19 C 8.15 g/m*3 19 C 8.1 km/h
514 01-06-2014 19:50:00 18.9 C 8.1 g/m*3 18.9 C 6.4 km/h
515 01-06-2014 19:55:00 18.8 C 8.21 g/m*3 18.8 C 4.8 km/h
516 01-06-2014 20:00:00 18.7 C 8.01 g/m*3 18.7 C 4.8 km/h
517 01-06-2014 20:05:00 18.6 C 8.12 g/m*3 18.6 C 6.4 km/h
518 01-06-2014 20:10:00 18.5 C 8.07 g/m*3 18.5 C 1.6 km/h
519 01-06-2014 20:15:00 18.3 C 7.97 g/m*3 18.3 C 3.2 km/h
520 01-06-2014 20:20:00 18.2 C 7.93 g/m*3 18.2 C 4.8 km/h
521 01-06-2014 20:25:00 18.1 C 8.03 g/m*3 18.1 C 3.2 km/h
522 01-06-2014 20:30:00 18 C 8.45 g/m*3 18 C 0 km/h
523 01-06-2014 20:35:00 17.8 C 9.26 g/m*3 17.8 C 0 km/h
524 01-06-2014 20:40:00 17.4 C 9.34 g/m*3 17.4 C 0 km/h
525 01-06-2014 20:45:00 17 C 9.12 g/m*3 17 C 0 km/h
Sensor: Nr:Datum:Temp:Abs-Feuchte:Windchill:Wind:
Aussen-T/F 526 01-06-2014 20:50:00 16.7 C 9.24 g/m*3 16.7 C 0 km/h
527 01-06-2014 20:55:00 16.4 C 8.93 g/m*3 16.4 C 0 km/h
528 01-06-2014 21:00:00 16.3 C 9.02 g/m*3 16.3 C 0 km/h
529 01-06-2014 21:05:00 16.2 C 9.38 g/m*3 16.2 C 0 km/h
530 01-06-2014 21:10:00 16 C 9.4 g/m*3 16 C 0 km/h
531 01-06-2014 21:15:00 15.9 C 9.62 g/m*3 15.9 C 0 km/h
532 01-06-2014 21:20:00 15.8 C 9.83 g/m*3 15.8 C 0 km/h
533 01-06-2014 21:25:00 15.7 C 9.63 g/m*3 15.7 C 0 km/h
534 01-06-2014 21:30:00 15.6 C 9.58 g/m*3 15.6 C 0 km/h
535 01-06-2014 21:35:00 15.5 C 9.39 g/m*3 15.5 C 0 km/h
536 01-06-2014 21:40:00 15.4 C 9.2 g/m*3 15.4 C 0 km/h
537 01-06-2014 21:45:00 15.3 C 9.4 g/m*3 15.3 C 0 km/h
538 01-06-2014 21:50:00 15.3 C 9.53 g/m*3 15.3 C 0 km/h
539 01-06-2014 21:55:00 15.3 C 9.53 g/m*3 15.3 C 1.6 km/h
540 01-06-2014 22:00:00 15.3 C 9.4 g/m*3 15.3 C 1.6 km/h
541 01-06-2014 22:05:00 15.6 C 9.31 g/m*3 15.6 C 1.6 km/h
542 01-06-2014 22:10:00 15.6 C 9.44 g/m*3 15.6 C 1.6 km/h
543 01-06-2014 22:15:00 15.4 C 9.33 g/m*3 15.4 C 0 km/h
544 01-06-2014 22:20:00 15.2 C 9.35 g/m*3 15.2 C 0 km/h
545 01-06-2014 22:25:00 15.1 C 9.42 g/m*3 15.1 C 0 km/h
546 01-06-2014 22:30:00 14.9 C 9.3 g/m*3 14.9 C 0 km/h
547 01-06-2014 22:35:00 14.8 C 9.37 g/m*3 14.8 C 0 km/h
548 01-06-2014 22:40:00 14.7 C 9.44 g/m*3 14.7 C 0 km/h
549 01-06-2014 22:45:00 14.6 C 9.26 g/m*3 14.6 C 0 km/h
550 01-06-2014 22:50:00 14.6 C 9.26 g/m*3 14.6 C 0 km/h
Sensor: Nr:Datum:Temp:Abs-Feuchte:Windchill:Wind:
Aussen-T/F 551 01-06-2014 22:55:00 14.6 C 9.26 g/m*3 14.6 C 0 km/h
552 01-06-2014 23:00:00 14.5 C 9.2 g/m*3 14.5 C 0 km/h
553 01-06-2014 23:05:00 14.4 C 9.27 g/m*3 14.4 C 0 km/h
554 01-06-2014 23:10:00 14.3 C 9.09 g/m*3 14.3 C 0 km/h
555 01-06-2014 23:15:00 14.2 C 8.91 g/m*3 14.2 C 0 km/h
556 01-06-2014 23:20:00 14 C 8.68 g/m*3 14 C 0 km/h
557 01-06-2014 23:25:00 13.9 C 8.75 g/m*3 13.9 C 0 km/h
558 01-06-2014 23:30:00 13.8 C 8.94 g/m*3 13.8 C 0 km/h
559 01-06-2014 23:35:00 13.8 C 9.06 g/m*3 13.8 C 1.6 km/h
560 01-06-2014 23:40:00 13.7 C 9 g/m*3 13.7 C 1.6 km/h
561 01-06-2014 23:45:00 13.7 C 9.24 g/m*3 13.7 C 1.6 km/h
562 01-06-2014 23:50:00 13.7 C 9 g/m*3 13.7 C 0 km/h
563 01-06-2014 23:55:00 13.8 C 9.06 g/m*3 13.8 C 0 km/h
564 02-06-2014 00:00:00 13.7 C 9.24 g/m*3 13.7 C 0 km/h
565 02-06-2014 00:05:00 13.7 C 9.24 g/m*3 13.7 C 0 km/h
566 02-06-2014 00:10:00 13.6 C 8.94 g/m*3 13.6 C 0 km/h
567 02-06-2014 00:15:00 13.6 C 9.06 g/m*3 13.6 C 0 km/h
568 02-06-2014 00:20:00 13.5 C 9.01 g/m*3 13.5 C 0 km/h
569 02-06-2014 00:25:00 13.5 C 9.01 g/m*3 13.5 C 0 km/h
570 02-06-2014 00:30:00 13.4 C 8.83 g/m*3 13.4 C 0 km/h
571 02-06-2014 00:35:00 13.4 C 8.95 g/m*3 13.4 C 0 km/h
572 02-06-2014 00:40:00 13.3 C 8.9 g/m*3 13.3 C 0 km/h
573 02-06-2014 00:45:00 13.3 C 9.01 g/m*3 13.3 C 0 km/h
574 02-06-2014 00:50:00 13.2 C 8.84 g/m*3 13.2 C 0 km/h
575 02-06-2014 00:55:00 13.2 C 9.07 g/m*3 13.2 C 0 km/h
Sensor: Nr:Datum:Temp:Abs-Feuchte:Windchill:Wind:
Aussen-T/F 576 02-06-2014 01:00:00 13.1 C 8.9 g/m*3 13.1 C 0 km/h
577 02-06-2014 01:05:00 13.1 C 8.9 g/m*3 13.1 C 0 km/h
578 02-06-2014 01:10:00 13.1 C 9.01 g/m*3 13.1 C 0 km/h
579 02-06-2014 01:15:00 13.1 C 8.56 g/m*3 13.1 C 0 km/h
580 02-06-2014 01:20:00 13.2 C 8.73 g/m*3 13.2 C 1.6 km/h
581 02-06-2014 01:25:00 13.2 C 8.73 g/m*3 13.2 C 1.6 km/h
582 02-06-2014 01:30:00 13.3 C 9.01 g/m*3 13.3 C 0 km/h
583 02-06-2014 01:35:00 13.2 C 8.84 g/m*3 13.2 C 0 km/h
584 02-06-2014 01:40:00 13.1 C 8.79 g/m*3 13.1 C 0 km/h
585 02-06-2014 01:45:00 12.9 C 8.9 g/m*3 12.9 C 0 km/h
586 02-06-2014 01:50:00 12.7 C 8.68 g/m*3 12.7 C 0 km/h
587 02-06-2014 01:55:00 12.3 C 8.47 g/m*3 12.3 C 0 km/h
588 02-06-2014 02:00:00 12.2 C 8.52 g/m*3 12.2 C 1.6 km/h
589 02-06-2014 02:05:00 12.1 C 8.47 g/m*3 12.1 C 0 km/h
590 02-06-2014 02:10:00 12 C 8.42 g/m*3 12 C 0 km/h
591 02-06-2014 02:15:00 11.9 C 8.37 g/m*3 11.9 C 0 km/h
592 02-06-2014 02:20:00 11.8 C 8.42 g/m*3 11.8 C 0 km/h
593 02-06-2014 02:25:00 11.7 C 8.47 g/m*3 11.7 C 0 km/h
594 02-06-2014 02:30:00 11.6 C 8.42 g/m*3 11.6 C 0 km/h
595 02-06-2014 02:35:00 11.4 C 8.31 g/m*3 11.4 C 0 km/h
596 02-06-2014 02:40:00 11.3 C 8.36 g/m*3 11.3 C 0 km/h
597 02-06-2014 02:45:00 11.2 C 8.21 g/m*3 11.2 C 0 km/h
598 02-06-2014 02:50:00 11.1 C 8.26 g/m*3 11.1 C 0 km/h
599 02-06-2014 02:55:00 10.9 C 8.26 g/m*3 10.9 C 0 km/h
600 02-06-2014 03:00:00 10.8 C 8.2 g/m*3 10.8 C 0 km/h
Sensor: Nr:Datum:Temp:Abs-Feuchte:Windchill:Wind:
Aussen-T/F 601 02-06-2014 03:05:00 10.7 C 8.25 g/m*3 10.7 C 0 km/h
602 02-06-2014 03:10:00 10.6 C 8.2 g/m*3 10.6 C 0 km/h
603 02-06-2014 03:15:00 10.5 C 8.15 g/m*3 10.5 C 0 km/h
604 02-06-2014 03:20:00 10.4 C 8.19 g/m*3 10.4 C 0 km/h
605 02-06-2014 03:25:00 10.3 C 8.14 g/m*3 10.3 C 0 km/h
606 02-06-2014 03:30:00 10.2 C 8.18 g/m*3 10.2 C 0 km/h
607 02-06-2014 03:35:00 10.1 C 8.13 g/m*3 10.1 C 0 km/h
608 02-06-2014 03:40:00 10.1 C 8.13 g/m*3 10.1 C 0 km/h
609 02-06-2014 03:45:00 10 C 8.08 g/m*3 10 C 0 km/h
610 02-06-2014 03:50:00 9.9 C 8.12 g/m*3 9.9 C 0 km/h
611 02-06-2014 03:55:00 9.8 C 8.07 g/m*3 9.8 C 0 km/h
612 02-06-2014 04:00:00 9.7 C 8.02 g/m*3 9.7 C 0 km/h
613 02-06-2014 04:05:00 9.7 C 8.02 g/m*3 9.7 C 0 km/h
614 02-06-2014 04:10:00 9.6 C 8.06 g/m*3 9.6 C 0 km/h
615 02-06-2014 04:15:00 9.5 C 8.01 g/m*3 9.5 C 0 km/h
616 02-06-2014 04:20:00 9.4 C 8.05 g/m*3 9.4 C 0 km/h
617 02-06-2014 04:25:00 9.4 C 8.05 g/m*3 9.4 C 0 km/h
618 02-06-2014 04:30:00 9.3 C 8 g/m*3 9.3 C 0 km/h
619 02-06-2014 04:35:00 9.3 C 8 g/m*3 9.3 C 0 km/h
620 02-06-2014 04:40:00 9.2 C 8.04 g/m*3 9.2 C 0 km/h
621 02-06-2014 04:45:00 9.2 C 8.04 g/m*3 9.2 C 0 km/h
622 02-06-2014 04:50:00 9.1 C 7.9 g/m*3 9.1 C 0 km/h
623 02-06-2014 04:55:00 9.1 C 7.99 g/m*3 9.1 C 0 km/h
624 02-06-2014 05:00:00 9.1 C 7.99 g/m*3 9.1 C 0 km/h
625 02-06-2014 05:05:00 8.9 C 7.88 g/m*3 8.9 C 0 km/h
Sensor: Nr:Datum:Temp:Abs-Feuchte:Windchill:Wind:
Aussen-T/F 626 02-06-2014 05:10:00 8.9 C 7.88 g/m*3 8.9 C 0 km/h
627 02-06-2014 05:15:00 8.8 C 7.92 g/m*3 8.8 C 0 km/h
628 02-06-2014 05:20:00 8.8 C 7.92 g/m*3 8.8 C 0 km/h
629 02-06-2014 05:25:00 8.8 C 7.92 g/m*3 8.8 C 0 km/h
630 02-06-2014 05:30:00 8.7 C 7.87 g/m*3 8.7 C 0 km/h
631 02-06-2014 05:35:00 8.7 C 7.96 g/m*3 8.7 C 0 km/h
632 02-06-2014 05:40:00 8.7 C 7.96 g/m*3 8.7 C 0 km/h
633 02-06-2014 05:45:00 8.7 C 7.96 g/m*3 8.7 C 0 km/h
634 02-06-2014 05:50:00 8.7 C 7.96 g/m*3 8.7 C 0 km/h
635 02-06-2014 05:55:00 8.7 C 7.96 g/m*3 8.7 C 0 km/h
636 02-06-2014 06:00:00 8.7 C 7.96 g/m*3 8.7 C 0 km/h
637 02-06-2014 06:05:00 8.7 C 7.96 g/m*3 8.7 C 0 km/h
638 02-06-2014 06:10:00 8.7 C 7.96 g/m*3 8.7 C 0 km/h
639 02-06-2014 06:15:00 8.7 C 7.96 g/m*3 8.7 C 0 km/h
640 02-06-2014 06:20:00 8.7 C 7.96 g/m*3 8.7 C 1.6 km/h
641 02-06-2014 06:25:00 8.8 C 8.01 g/m*3 8.8 C 0 km/h
642 02-06-2014 06:30:00 8.8 C 8.09 g/m*3 8.8 C 0 km/h
643 02-06-2014 06:35:00 8.8 C 8.09 g/m*3 8.8 C 0 km/h
644 02-06-2014 06:40:00 8.8 C 8.09 g/m*3 8.8 C 0 km/h
645 02-06-2014 06:45:00 8.9 C 8.15 g/m*3 8.9 C 1.6 km/h
646 02-06-2014 06:50:00 8.9 C 8.15 g/m*3 8.9 C 0 km/h
647 02-06-2014 06:55:00 9 C 8.11 g/m*3 9 C 0 km/h
648 02-06-2014 07:00:00 9.1 C 8.16 g/m*3 9.1 C 0 km/h
649 02-06-2014 07:05:00 9.2 C 8.3 g/m*3 9.2 C 3.2 km/h
650 02-06-2014 07:10:00 9.4 C 8.32 g/m*3 8.68 C 6.4 km/h
Sensor: Nr:Datum:Temp:Abs-Feuchte:Windchill:Wind:
Aussen-T/F 651 02-06-2014 07:15:00 9.5 C 8.28 g/m*3 9.5 C 4.8 km/h
652 02-06-2014 07:20:00 9.6 C 8.34 g/m*3 9.6 C 1.6 km/h
653 02-06-2014 07:25:00 9.7 C 8.3 g/m*3 9.7 C 3.2 km/h
654 02-06-2014 07:30:00 9.8 C 8.35 g/m*3 9.8 C 4.8 km/h
655 02-06-2014 07:35:00 9.8 C 8.26 g/m*3 9.8 C 0 km/h
656 02-06-2014 07:40:00 9.9 C 8.31 g/m*3 9.9 C 0 km/h
657 02-06-2014 07:45:00 9.9 C 8.4 g/m*3 9.9 C 3.2 km/h
658 02-06-2014 07:50:00 10.2 C 8.56 g/m*3 10.2 C 0 km/h
659 02-06-2014 07:55:00 10.4 C 8.67 g/m*3 10.4 C 0 km/h
660 02-06-2014 08:00:00 10.7 C 8.74 g/m*3 10.7 C 0 km/h
661 02-06-2014 08:05:00 11.1 C 8.96 g/m*3 11.1 C 0 km/h
662 02-06-2014 08:10:00 11.2 C 8.92 g/m*3 11.2 C 0 km/h
663 02-06-2014 08:15:00 11.4 C 9.03 g/m*3 11.4 C 0 km/h
664 02-06-2014 08:20:00 11.6 C 8.94 g/m*3 11.6 C 0 km/h
665 02-06-2014 08:25:00 11.8 C 9.05 g/m*3 11.8 C 0 km/h
666 02-06-2014 08:30:00 11.9 C 9 g/m*3 11.9 C 0 km/h
667 02-06-2014 08:35:00 11.9 C 9 g/m*3 11.9 C 0 km/h
668 02-06-2014 08:40:00 11.9 C 9 g/m*3 11.9 C 0 km/h
669 02-06-2014 09:15:00 14.2 C 12.21 g/m*3 14.2 C 0 km/h
670 02-06-2014 09:20:00 14.2 C 9.65 g/m*3 14.2 C 0 km/h
671 02-06-2014 09:25:00 14.1 C 9.34 g/m*3 14.1 C 0 km/h
672 02-06-2014 09:30:00 14.1 C 9.47 g/m*3 14.1 C 0 km/h
673 02-06-2014 09:35:00 14.2 C 9.52 g/m*3 14.2 C 3.2 km/h
674 02-06-2014 09:40:00 14.5 C 9.7 g/m*3 14.5 C 3.2 km/h
675 02-06-2014 09:45:00 14.7 C 9.44 g/m*3 14.7 C 1.6 km/h
Sensor: Nr:Datum:Temp:Abs-Feuchte:Windchill:Wind:
Aussen-T/F 676 02-06-2014 09:50:00 14.8 C 9.5 g/m*3 14.8 C 1.6 km/h
677 02-06-2014 09:55:00 14.9 C 9.43 g/m*3 14.9 C 3.2 km/h
678 02-06-2014 10:00:00 15.2 C 9.73 g/m*3 15.2 C 4.8 km/h
679 02-06-2014 10:05:00 15.2 C 9.73 g/m*3 15.2 C 3.2 km/h
680 02-06-2014 10:10:00 15.5 C 9.52 g/m*3 15.5 C 1.6 km/h
681 02-06-2014 10:15:00 15.6 C 9.31 g/m*3 15.6 C 3.2 km/h
682 02-06-2014 10:20:00 15.7 C 9.77 g/m*3 15.7 C 3.2 km/h
683 02-06-2014 10:25:00 15.9 C 9.34 g/m*3 15.9 C 1.6 km/h
684 02-06-2014 10:30:00 16 C 9.95 g/m*3 16 C 1.6 km/h
685 02-06-2014 10:35:00 16.1 C 9.87 g/m*3 16.1 C 3.2 km/h
686 02-06-2014 10:40:00 16.1 C 9.87 g/m*3 16.1 C 3.2 km/h
687 02-06-2014 12:25:00 20.8 C 9.05 g/m*3 20.8 C 4.8 km/h
688 02-06-2014 12:30:00 20.8 C 9.05 g/m*3 20.8 C 8.1 km/h
689 02-06-2014 12:35:00 20.8 C 9.05 g/m*3 20.8 C 9.7 km/h
690 02-06-2014 13:25:00 20.9 C 8.92 g/m*3 20.9 C 3.2 km/h
691 02-06-2014 13:30:00 20.8 C 8.87 g/m*3 20.8 C 6.4 km/h
692 02-06-2014 13:35:00 20.8 C 8.87 g/m*3 20.8 C 6.4 km/h
693 02-06-2014 13:40:00 21.2 C 8.71 g/m*3 21.2 C 9.7 km/h
694 02-06-2014 13:45:00 21.2 C 8.71 g/m*3 21.2 C 8.1 km/h
695 02-06-2014 13:50:00 21.3 C 8.39 g/m*3 21.3 C 3.2 km/h
696 02-06-2014 13:55:00 21.3 C 9.13 g/m*3 21.3 C 9.7 km/h
697 02-06-2014 14:00:00 21.3 C 9.13 g/m*3 21.3 C 9.7 km/h
698 02-06-2014 14:05:00 21.3 C 9.13 g/m*3 21.3 C 9.7 km/h
699 02-06-2014 14:10:00 21.4 C 9.19 g/m*3 21.4 C 8.1 km/h
700 02-06-2014 14:15:00 21.4 C 9.56 g/m*3 21.4 C 3.2 km/h
Sensor: Nr:Datum:Temp:Abs-Feuchte:Windchill:Wind:
Aussen-T/F 701 02-06-2014 14:20:00 21.7 C 8.97 g/m*3 21.7 C 4.8 km/h
702 02-06-2014 14:25:00 21.8 C 9.59 g/m*3 21.8 C 9.7 km/h
703 02-06-2014 14:30:00 22.2 C 9.03 g/m*3 22.2 C 9.7 km/h
704 02-06-2014 14:35:00 22 C 8.73 g/m*3 22 C 6.4 km/h
705 02-06-2014 14:40:00 21.9 C 8.68 g/m*3 21.9 C 4.8 km/h
706 02-06-2014 14:45:00 22.2 C 9.03 g/m*3 22.2 C 6.4 km/h
707 02-06-2014 14:50:00 22.4 C 8.94 g/m*3 22.4 C 11.3 km/h
708 02-06-2014 14:55:00 22.6 C 8.84 g/m*3 22.6 C 4.8 km/h
709 02-06-2014 15:00:00 22.7 C 8.89 g/m*3 22.7 C 12.9 km/h
710 02-06-2014 15:05:00 22.6 C 8.64 g/m*3 22.6 C 12.9 km/h
711 02-06-2014 15:10:00 22.1 C 8.39 g/m*3 22.1 C 6.4 km/h
712 02-06-2014 15:15:00 21.9 C 8.68 g/m*3 21.9 C 6.4 km/h
713 02-06-2014 15:20:00 22.1 C 8.78 g/m*3 22.1 C 6.4 km/h
714 02-06-2014 15:25:00 22.3 C 8.69 g/m*3 22.3 C 6.4 km/h
715 02-06-2014 15:30:00 22.6 C 8.84 g/m*3 22.6 C 6.4 km/h
716 02-06-2014 15:35:00 22.6 C 8.84 g/m*3 22.6 C 4.8 km/h
717 02-06-2014 15:40:00 22.7 C 8.69 g/m*3 22.7 C 4.8 km/h
718 02-06-2014 15:45:00 22.8 C 9.14 g/m*3 22.8 C 4.8 km/h
719 02-06-2014 15:50:00 23.2 C 8.52 g/m*3 23.2 C 1.6 km/h
720 02-06-2014 15:55:00 23.2 C 8.11 g/m*3 23.2 C 4.8 km/h
721 02-06-2014 16:00:00 22.5 C 8.59 g/m*3 22.5 C 1.6 km/h
722 02-06-2014 16:05:00 22.1 C 8.2 g/m*3 22.1 C 4.8 km/h
723 02-06-2014 16:10:00 21.8 C 8.06 g/m*3 21.8 C 8.1 km/h
724 02-06-2014 16:15:00 21.8 C 8.06 g/m*3 21.8 C 6.4 km/h
725 02-06-2014 16:20:00 22.5 C 8.99 g/m*3 22.5 C 8.1 km/h
Sensor: Nr:Datum:Temp:Abs-Feuchte:Windchill:Wind:
Aussen-T/F 726 02-06-2014 16:25:00 23.1 C 8.68 g/m*3 23.1 C 9.7 km/h
727 02-06-2014 16:30:00 23.2 C 8.52 g/m*3 23.2 C 9.7 km/h
728 02-06-2014 16:35:00 23.4 C 9.46 g/m*3 23.4 C 9.7 km/h
729 02-06-2014 16:40:00 23.8 C 8.6 g/m*3 23.8 C 6.4 km/h
730 02-06-2014 16:45:00 23.6 C 8.72 g/m*3 23.6 C 6.4 km/h
731 02-06-2014 16:50:00 23.7 C 8.77 g/m*3 23.7 C 6.4 km/h
732 02-06-2014 16:55:00 23.6 C 8.29 g/m*3 23.6 C 8.1 km/h
733 02-06-2014 17:00:00 23.4 C 8.83 g/m*3 23.4 C 6.4 km/h
734 02-06-2014 17:05:00 23.6 C 8.93 g/m*3 23.6 C 11.3 km/h
735 02-06-2014 17:10:00 23.8 C 8.39 g/m*3 23.8 C 8.1 km/h
736 02-06-2014 17:15:00 23.7 C 8.13 g/m*3 23.7 C 11.3 km/h
737 02-06-2014 17:20:00 23.7 C 8.56 g/m*3 23.7 C 8.1 km/h
738 02-06-2014 17:25:00 23.7 C 8.56 g/m*3 23.7 C 8.1 km/h
739 02-06-2014 17:30:00 23.8 C 8.82 g/m*3 23.8 C 11.3 km/h
740 02-06-2014 17:35:00 23.8 C 8.82 g/m*3 23.8 C 6.4 km/h
741 02-06-2014 17:40:00 23.8 C 8.39 g/m*3 23.8 C 4.8 km/h
742 02-06-2014 17:45:00 24 C 8.27 g/m*3 24 C 8.1 km/h
743 02-06-2014 17:50:00 24 C 8.27 g/m*3 24 C 6.4 km/h
744 02-06-2014 18:30:00 23.7 C 8.56 g/m*3 23.7 C 6.4 km/h
745 02-06-2014 18:35:00 23.6 C 8.93 g/m*3 23.6 C 9.7 km/h
746 02-06-2014 18:40:00 23.6 C 8.29 g/m*3 23.6 C 8.1 km/h
747 02-06-2014 18:45:00 23.7 C 8.56 g/m*3 23.7 C 6.4 km/h
748 02-06-2014 18:50:00 23.6 C 8.29 g/m*3 23.6 C 8.1 km/h
749 02-06-2014 18:55:00 23.5 C 8.46 g/m*3 23.5 C 4.8 km/h
750 02-06-2014 19:00:00 23.5 C 8.46 g/m*3 23.5 C 4.8 km/h
Sensor: Nr:Datum:Temp:Abs-Feuchte:Windchill:Wind:
Aussen-T/F 751 02-06-2014 19:05:00 23.4 C 8.41 g/m*3 23.4 C 8.1 km/h
752 02-06-2014 19:10:00 23.4 C 8.2 g/m*3 23.4 C 9.7 km/h
753 02-06-2014 19:15:00 22.8 C 8.13 g/m*3 22.8 C 6.4 km/h
754 02-06-2014 19:20:00 22.5 C 8.19 g/m*3 22.5 C 8.1 km/h
755 02-06-2014 19:25:00 22.4 C 8.14 g/m*3 22.4 C 8.1 km/h
756 02-06-2014 19:30:00 22.3 C 8.29 g/m*3 22.3 C 9.7 km/h
757 02-06-2014 19:35:00 22.1 C 8.39 g/m*3 22.1 C 8.1 km/h
758 02-06-2014 19:40:00 22 C 8.15 g/m*3 22 C 4.8 km/h
759 02-06-2014 19:45:00 21.8 C 8.25 g/m*3 21.8 C 6.4 km/h
760 02-06-2014 19:50:00 21.7 C 8.01 g/m*3 21.7 C 6.4 km/h
761 02-06-2014 19:55:00 21.6 C 7.97 g/m*3 21.6 C 3.2 km/h
762 02-06-2014 20:00:00 21.4 C 7.87 g/m*3 21.4 C 4.8 km/h
763 02-06-2014 20:05:00 21.3 C 8.02 g/m*3 21.3 C 4.8 km/h
764 02-06-2014 20:10:00 21.2 C 7.97 g/m*3 21.2 C 4.8 km/h
765 02-06-2014 20:15:00 21.1 C 7.92 g/m*3 21.1 C 6.4 km/h
766 02-06-2014 20:20:00 20.9 C 8.2 g/m*3 20.9 C 3.2 km/h
767 02-06-2014 20:25:00 20.8 C 7.97 g/m*3 20.8 C 3.2 km/h
768 02-06-2014 20:30:00 20.4 C 9.73 g/m*3 20.4 C 6.4 km/h
769 02-06-2014 20:35:00 19.7 C 9.51 g/m*3 19.7 C 1.6 km/h
770 02-06-2014 20:40:00 19.3 C 9.79 g/m*3 19.3 C 1.6 km/h
771 02-06-2014 20:45:00 18.9 C 10.53 g/m*3 18.9 C 0 km/h
772 02-06-2014 20:50:00 18.6 C 10.35 g/m*3 18.6 C 0 km/h
773 02-06-2014 20:55:00 18.2 C 10.26 g/m*3 18.2 C 0 km/h
774 02-06-2014 21:00:00 17.8 C 10.17 g/m*3 17.8 C 0 km/h
775 02-06-2014 21:05:00 17.6 C 9.9 g/m*3 17.6 C 0 km/h
Sensor: Nr:Datum:Temp:Abs-Feuchte:Windchill:Wind:
Aussen-T/F 776 02-06-2014 21:10:00 17.4 C 9.93 g/m*3 17.4 C 0 km/h
777 02-06-2014 21:15:00 17.2 C 9.96 g/m*3 17.2 C 0 km/h
778 02-06-2014 21:20:00 17 C 9.98 g/m*3 17 C 0 km/h
779 02-06-2014 21:25:00 16.8 C 10.01 g/m*3 16.8 C 1.6 km/h
780 02-06-2014 21:30:00 16.7 C 9.81 g/m*3 16.7 C 0 km/h
781 02-06-2014 21:35:00 16.6 C 9.89 g/m*3 16.6 C 1.6 km/h
782 02-06-2014 21:40:00 16.5 C 9.97 g/m*3 16.5 C 1.6 km/h
783 02-06-2014 21:45:00 16.4 C 9.35 g/m*3 16.4 C 0 km/h
784 02-06-2014 21:50:00 16.3 C 9.57 g/m*3 16.3 C 0 km/h
785 02-06-2014 21:55:00 16.3 C 9.57 g/m*3 16.3 C 0 km/h
786 02-06-2014 22:00:00 16.3 C 9.57 g/m*3 16.3 C 0 km/h
787 02-06-2014 22:05:00 16.2 C 9.38 g/m*3 16.2 C 0 km/h
788 02-06-2014 22:10:00 16.2 C 9.24 g/m*3 16.2 C 0 km/h
789 02-06-2014 22:15:00 16.1 C 9.46 g/m*3 16.1 C 0 km/h
790 02-06-2014 22:20:00 16 C 9.4 g/m*3 16 C 0 km/h
791 02-06-2014 22:25:00 15.9 C 9.48 g/m*3 15.9 C 0 km/h
792 02-06-2014 22:30:00 15.9 C 9.48 g/m*3 15.9 C 0 km/h
793 02-06-2014 22:35:00 15.9 C 9.48 g/m*3 15.9 C 0 km/h
794 02-06-2014 22:40:00 15.9 C 9.75 g/m*3 15.9 C 0 km/h
795 02-06-2014 22:45:00 15.9 C 9.75 g/m*3 15.9 C 0 km/h
796 02-06-2014 22:50:00 15.9 C 9.34 g/m*3 15.9 C 0 km/h
797 02-06-2014 22:55:00 15.9 C 9.62 g/m*3 15.9 C 0 km/h
798 02-06-2014 23:00:00 15.9 C 9.34 g/m*3 15.9 C 0 km/h
799 02-06-2014 23:05:00 15.8 C 9.42 g/m*3 15.8 C 0 km/h
800 02-06-2014 23:10:00 15.8 C 9.29 g/m*3 15.8 C 0 km/h
Sensor: Nr:Datum:Temp:Abs-Feuchte:Windchill:Wind:
Aussen-T/F 801 02-06-2014 23:15:00 15.8 C 9.29 g/m*3 15.8 C 0 km/h
802 02-06-2014 23:20:00 15.8 C 9.69 g/m*3 15.8 C 0 km/h
803 02-06-2014 23:25:00 15.7 C 9.37 g/m*3 15.7 C 0 km/h
804 02-06-2014 23:30:00 15.7 C 9.5 g/m*3 15.7 C 0 km/h
805 02-06-2014 23:35:00 15.5 C 9.25 g/m*3 15.5 C 1.6 km/h
806 02-06-2014 23:40:00 15.4 C 9.2 g/m*3 15.4 C 0 km/h
807 02-06-2014 23:45:00 15.3 C 9.14 g/m*3 15.3 C 1.6 km/h
808 02-06-2014 23:50:00 15.2 C 9.35 g/m*3 15.2 C 0 km/h
809 02-06-2014 23:55:00 15.1 C 9.16 g/m*3 15.1 C 0 km/h
810 03-06-2014 00:00:00 15 C 9.23 g/m*3 15 C 0 km/h
811 03-06-2014 00:05:00 14.9 C 9.3 g/m*3 14.9 C 0 km/h
812 03-06-2014 00:10:00 14.8 C 9.25 g/m*3 14.8 C 0 km/h
813 03-06-2014 00:15:00 14.8 C 9.37 g/m*3 14.8 C 0 km/h
814 03-06-2014 00:20:00 14.7 C 9.19 g/m*3 14.7 C 0 km/h
815 03-06-2014 00:25:00 14.7 C 9.32 g/m*3 14.7 C 0 km/h
816 03-06-2014 00:30:00 14.6 C 9.26 g/m*3 14.6 C 0 km/h
817 03-06-2014 00:35:00 14.6 C 9.39 g/m*3 14.6 C 0 km/h
818 03-06-2014 00:40:00 14.4 C 9.27 g/m*3 14.4 C 0 km/h
819 03-06-2014 00:45:00 14.2 C 9.16 g/m*3 14.2 C 0 km/h
820 03-06-2014 00:50:00 14.1 C 9.22 g/m*3 14.1 C 0 km/h
821 03-06-2014 00:55:00 14 C 9.17 g/m*3 14 C 0 km/h
822 03-06-2014 01:00:00 13.9 C 9.11 g/m*3 13.9 C 0 km/h
823 03-06-2014 01:05:00 13.8 C 9.17 g/m*3 13.8 C 0 km/h
824 03-06-2014 01:10:00 13.7 C 9.24 g/m*3 13.7 C 0 km/h
825 03-06-2014 01:15:00 13.7 C 9.24 g/m*3 13.7 C 0 km/h
Sensor: Nr:Datum:Temp:Abs-Feuchte:Windchill:Wind:
Aussen-T/F 826 03-06-2014 01:20:00 13.6 C 9.18 g/m*3 13.6 C 0 km/h
827 03-06-2014 01:25:00 13.4 C 9.18 g/m*3 13.4 C 0 km/h
828 03-06-2014 01:30:00 13.4 C 9.18 g/m*3 13.4 C 0 km/h
829 03-06-2014 01:35:00 13.3 C 9.13 g/m*3 13.3 C 0 km/h
830 03-06-2014 01:40:00 13.2 C 9.07 g/m*3 13.2 C 0 km/h
831 03-06-2014 01:45:00 13.2 C 9.07 g/m*3 13.2 C 0 km/h
832 03-06-2014 01:50:00 13.1 C 9.13 g/m*3 13.1 C 0 km/h
833 03-06-2014 01:55:00 12.9 C 9.02 g/m*3 12.9 C 0 km/h
834 03-06-2014 02:00:00 12.8 C 9.07 g/m*3 12.8 C 0 km/h
835 03-06-2014 02:05:00 12.7 C 9.02 g/m*3 12.7 C 3.2 km/h
836 03-06-2014 02:10:00 12.7 C 9.02 g/m*3 12.7 C 3.2 km/h
837 03-06-2014 02:15:00 12.5 C 8.91 g/m*3 12.5 C 0 km/h
838 03-06-2014 02:20:00 12.4 C 8.96 g/m*3 12.4 C 0 km/h
839 03-06-2014 02:25:00 12.3 C 8.9 g/m*3 12.3 C 0 km/h
840 03-06-2014 02:30:00 12.2 C 8.85 g/m*3 12.2 C 0 km/h
841 03-06-2014 02:35:00 12.1 C 8.79 g/m*3 12.1 C 0 km/h
842 03-06-2014 02:40:00 11.9 C 8.79 g/m*3 11.9 C 0 km/h
843 03-06-2014 02:45:00 11.8 C 8.74 g/m*3 11.8 C 0 km/h
844 03-06-2014 02:50:00 11.8 C 8.74 g/m*3 11.8 C 0 km/h
845 03-06-2014 02:55:00 11.7 C 8.79 g/m*3 11.7 C 0 km/h
846 03-06-2014 03:00:00 11.7 C 8.79 g/m*3 11.7 C 0 km/h
847 03-06-2014 03:05:00 11.5 C 8.78 g/m*3 11.5 C 0 km/h
848 03-06-2014 03:10:00 11.4 C 8.72 g/m*3 11.4 C 0 km/h
849 03-06-2014 03:15:00 11.3 C 8.67 g/m*3 11.3 C 0 km/h
850 03-06-2014 03:20:00 11.2 C 8.62 g/m*3 11.2 C 0 km/h
Sensor: Nr:Datum:Temp:Abs-Feuchte:Windchill:Wind:
Aussen-T/F 851 03-06-2014 03:25:00 11.1 C 8.66 g/m*3 11.1 C 0 km/h
852 03-06-2014 03:30:00 11.1 C 8.66 g/m*3 11.1 C 0 km/h
853 03-06-2014 03:35:00 10.9 C 8.55 g/m*3 10.9 C 0 km/h
854 03-06-2014 03:40:00 10.9 C 8.55 g/m*3 10.9 C 0 km/h
855 03-06-2014 03:45:00 10.8 C 8.6 g/m*3 10.8 C 0 km/h
856 03-06-2014 03:50:00 10.8 C 8.6 g/m*3 10.8 C 0 km/h
857 03-06-2014 03:55:00 10.8 C 8.6 g/m*3 10.8 C 0 km/h
858 03-06-2014 04:00:00 10.7 C 8.55 g/m*3 10.7 C 0 km/h
859 03-06-2014 04:05:00 10.6 C 8.49 g/m*3 10.6 C 0 km/h
860 03-06-2014 04:10:00 10.5 C 8.53 g/m*3 10.5 C 0 km/h
861 03-06-2014 04:15:00 10.4 C 8.48 g/m*3 10.4 C 0 km/h
862 03-06-2014 04:20:00 10.4 C 8.48 g/m*3 10.4 C 0 km/h
863 03-06-2014 04:25:00 10.3 C 8.52 g/m*3 10.3 C 0 km/h
864 03-06-2014 04:30:00 10.3 C 8.52 g/m*3 10.3 C 0 km/h
865 03-06-2014 04:35:00 10.2 C 8.47 g/m*3 10.2 C 0 km/h
866 03-06-2014 04:40:00 10.2 C 8.47 g/m*3 10.2 C 0 km/h
867 03-06-2014 04:45:00 10.1 C 8.51 g/m*3 10.1 C 0 km/h
868 03-06-2014 04:50:00 10.1 C 8.51 g/m*3 10.1 C 0 km/h
869 03-06-2014 04:55:00 10 C 8.46 g/m*3 10 C 0 km/h
870 03-06-2014 05:00:00 9.9 C 8.4 g/m*3 9.9 C 0 km/h
871 03-06-2014 05:05:00 9.9 C 8.5 g/m*3 9.9 C 0 km/h
872 03-06-2014 05:10:00 9.9 C 8.5 g/m*3 9.9 C 0 km/h
873 03-06-2014 05:15:00 9.9 C 8.5 g/m*3 9.9 C 0 km/h
874 03-06-2014 05:20:00 9.8 C 8.44 g/m*3 9.8 C 0 km/h
875 03-06-2014 05:25:00 9.8 C 8.44 g/m*3 9.8 C 0 km/h
Sensor: Nr:Datum:Temp:Abs-Feuchte:Windchill:Wind:
Aussen-T/F 876 03-06-2014 05:30:00 9.8 C 8.54 g/m*3 9.8 C 0 km/h
877 03-06-2014 05:35:00 9.8 C 8.54 g/m*3 9.8 C 0 km/h
878 03-06-2014 05:40:00 9.8 C 8.54 g/m*3 9.8 C 0 km/h
879 03-06-2014 05:45:00 9.8 C 8.54 g/m*3 9.8 C 0 km/h
880 03-06-2014 05:50:00 9.8 C 8.54 g/m*3 9.8 C 0 km/h
881 03-06-2014 05:55:00 9.8 C 8.54 g/m*3 9.8 C 0 km/h
882 03-06-2014 06:00:00 9.8 C 8.54 g/m*3 9.8 C 0 km/h
883 03-06-2014 06:05:00 9.8 C 8.54 g/m*3 9.8 C 0 km/h
884 03-06-2014 06:10:00 9.9 C 8.68 g/m*3 9.25 C 6.4 km/h
885 03-06-2014 06:15:00 10 C 8.74 g/m*3 9.37 C 6.4 km/h
886 03-06-2014 06:20:00 10.1 C 8.7 g/m*3 10.1 C 0 km/h
887 03-06-2014 06:25:00 10.1 C 8.7 g/m*3 10.1 C 0 km/h
888 03-06-2014 06:30:00 10.2 C 8.76 g/m*3 10.2 C 0 km/h
889 03-06-2014 06:35:00 10.2 C 8.76 g/m*3 10.2 C 0 km/h
890 03-06-2014 06:40:00 10.3 C 8.81 g/m*3 10.3 C 0 km/h
891 03-06-2014 06:45:00 10.4 C 8.87 g/m*3 10.4 C 0 km/h
892 03-06-2014 06:50:00 10.5 C 8.92 g/m*3 10.5 C 3.2 km/h
893 03-06-2014 06:55:00 10.6 C 8.88 g/m*3 10.6 C 0 km/h
894 03-06-2014 07:00:00 10.7 C 8.94 g/m*3 10.7 C 0 km/h
895 03-06-2014 07:05:00 10.8 C 8.99 g/m*3 10.8 C 0 km/h
896 03-06-2014 07:10:00 10.9 C 9.05 g/m*3 10.9 C 1.6 km/h
897 03-06-2014 07:15:00 11 C 9.01 g/m*3 11 C 3.2 km/h
898 03-06-2014 07:20:00 11.1 C 9.07 g/m*3 11.1 C 3.2 km/h
899 03-06-2014 07:25:00 11.3 C 9.18 g/m*3 11.3 C 4.8 km/h
900 03-06-2014 07:30:00 11.4 C 9.14 g/m*3 11.4 C 4.8 km/h
Sensor: Nr:Datum:Temp:Abs-Feuchte:Windchill:Wind:
Aussen-T/F 901 03-06-2014 07:35:00 11.6 C 9.25 g/m*3 11.6 C 3.2 km/h
902 03-06-2014 07:40:00 11.7 C 9.2 g/m*3 11.7 C 4.8 km/h
903 03-06-2014 07:45:00 11.8 C 9.26 g/m*3 11.8 C 4.8 km/h
904 03-06-2014 07:50:00 12.1 C 9.44 g/m*3 12.1 C 3.2 km/h
905 03-06-2014 07:55:00 12.2 C 9.28 g/m*3 12.2 C 4.8 km/h
906 03-06-2014 08:00:00 12.3 C 9.34 g/m*3 12.3 C 4.8 km/h
907 03-06-2014 08:05:00 12.4 C 9.4 g/m*3 12.4 C 3.2 km/h
908 03-06-2014 08:10:00 12.5 C 9.35 g/m*3 12.5 C 3.2 km/h
909 03-06-2014 08:15:00 12.6 C 9.4 g/m*3 12.6 C 1.6 km/h
910 03-06-2014 08:20:00 12.7 C 9.46 g/m*3 12.7 C 1.6 km/h
911 03-06-2014 08:25:00 12.9 C 9.58 g/m*3 12.9 C 1.6 km/h
912 03-06-2014 08:30:00 13.1 C 9.47 g/m*3 13.1 C 3.2 km/h
913 03-06-2014 08:35:00 13.3 C 9.59 g/m*3 13.3 C 1.6 km/h
914 03-06-2014 08:40:00 13.4 C 9.65 g/m*3 13.4 C 3.2 km/h
915 03-06-2014 08:45:00 13.6 C 9.53 g/m*3 13.6 C 3.2 km/h
916 03-06-2014 08:50:00 13.7 C 9.59 g/m*3 13.7 C 4.8 km/h
917 03-06-2014 08:55:00 13.7 C 9.47 g/m*3 13.7 C 1.6 km/h
918 03-06-2014 09:00:00 13.8 C 9.53 g/m*3 13.8 C 3.2 km/h
919 03-06-2014 09:05:00 13.9 C 9.59 g/m*3 13.9 C 3.2 km/h
920 03-06-2014 09:10:00 14.1 C 9.71 g/m*3 14.1 C 3.2 km/h
921 03-06-2014 09:15:00 14.2 C 9.77 g/m*3 14.2 C 0 km/h
922 03-06-2014 09:20:00 14.3 C 9.95 g/m*3 14.3 C 1.6 km/h
923 03-06-2014 09:25:00 14.4 C 10.01 g/m*3 14.4 C 1.6 km/h
924 03-06-2014 09:30:00 14.4 C 10.01 g/m*3 14.4 C 0 km/h
925 03-06-2014 09:35:00 14.6 C 10.26 g/m*3 14.6 C 0 km/h
Sensor: Nr:Datum:Temp:Abs-Feuchte:Windchill:Wind:
Aussen-T/F 926 03-06-2014 09:40:00 14.7 C 10.2 g/m*3 14.7 C 1.6 km/h
927 03-06-2014 09:45:00 14.8 C 10.13 g/m*3 14.8 C 0 km/h
928 03-06-2014 09:50:00 15.1 C 10.19 g/m*3 15.1 C 1.6 km/h
929 03-06-2014 09:55:00 15.5 C 10.18 g/m*3 15.5 C 1.6 km/h
930 03-06-2014 10:00:00 16 C 10.63 g/m*3 16 C 1.6 km/h
931 03-06-2014 10:05:00 16.5 C 10.95 g/m*3 16.5 C 0 km/h
932 03-06-2014 10:10:00 17.1 C 10.77 g/m*3 17.1 C 1.6 km/h
933 03-06-2014 10:15:00 17.4 C 10.67 g/m*3 17.4 C 3.2 km/h
934 03-06-2014 10:20:00 17.8 C 10.62 g/m*3 17.8 C 3.2 km/h
935 03-06-2014 10:25:00 17.9 C 10.69 g/m*3 17.9 C 1.6 km/h
936 03-06-2014 10:30:00 18.2 C 10.72 g/m*3 18.2 C 0 km/h
937 03-06-2014 10:35:00 18.4 C 10.85 g/m*3 18.4 C 4.8 km/h
938 03-06-2014 10:40:00 18.7 C 10.89 g/m*3 18.7 C 3.2 km/h
939 03-06-2014 10:45:00 18.9 C 10.37 g/m*3 18.9 C 3.2 km/h
940 03-06-2014 10:50:00 18.9 C 11.02 g/m*3 18.9 C 3.2 km/h
941 03-06-2014 10:55:00 18.9 C 10.85 g/m*3 18.9 C 1.6 km/h
942 03-06-2014 11:00:00 18.8 C 10.79 g/m*3 18.8 C 1.6 km/h
943 03-06-2014 11:05:00 18.7 C 10.73 g/m*3 18.7 C 0 km/h
944 03-06-2014 11:10:00 18.6 C 11.46 g/m*3 18.6 C 0 km/h
945 03-06-2014 11:15:00 18.6 C 11.14 g/m*3 18.6 C 3.2 km/h
946 03-06-2014 11:20:00 18.6 C 11.14 g/m*3 18.6 C 3.2 km/h
947 03-06-2014 11:25:00 18.9 C 11.18 g/m*3 18.9 C 3.2 km/h
948 03-06-2014 11:30:00 19.3 C 10.78 g/m*3 19.3 C 3.2 km/h
949 03-06-2014 11:35:00 19.7 C 11.21 g/m*3 19.7 C 3.2 km/h
950 03-06-2014 11:40:00 20.1 C 10.95 g/m*3 20.1 C 3.2 km/h
Sensor: Nr:Datum:Temp:Abs-Feuchte:Windchill:Wind:
Aussen-T/F 951 03-06-2014 11:45:00 20.6 C 11.1 g/m*3 20.6 C 6.4 km/h
952 03-06-2014 11:50:00 20.9 C 11.47 g/m*3 20.9 C 4.8 km/h
953 03-06-2014 11:55:00 20.8 C 10.5 g/m*3 20.8 C 4.8 km/h
954 03-06-2014 12:00:00 20.7 C 11.34 g/m*3 20.7 C 1.6 km/h
955 03-06-2014 12:05:00 20.1 C 11.47 g/m*3 20.1 C 0 km/h
956 03-06-2014 12:10:00 19.2 C 11.87 g/m*3 19.2 C 0 km/h
957 03-06-2014 12:15:00 18.6 C 11.62 g/m*3 18.6 C 0 km/h
958 03-06-2014 12:20:00 18 C 11.52 g/m*3 18 C 0 km/h
959 03-06-2014 12:25:00 17.7 C 11.62 g/m*3 17.7 C 0 km/h
960 03-06-2014 12:30:00 17.6 C 11.7 g/m*3 17.6 C 0 km/h
961 03-06-2014 12:35:00 17.6 C 11.55 g/m*3 17.6 C 0 km/h
962 03-06-2014 12:40:00 17.8 C 11.84 g/m*3 17.8 C 0 km/h
963 03-06-2014 12:45:00 18.5 C 11.08 g/m*3 18.5 C 4.8 km/h
964 03-06-2014 12:50:00 19.7 C 10.53 g/m*3 19.7 C 3.2 km/h
965 03-06-2014 12:55:00 20.4 C 9.73 g/m*3 20.4 C 4.8 km/h
966 03-06-2014 13:00:00 21.1 C 9.58 g/m*3 21.1 C 3.2 km/h
967 03-06-2014 13:05:00 21.8 C 9.98 g/m*3 21.8 C 3.2 km/h
968 03-06-2014 13:10:00 22.2 C 9.42 g/m*3 22.2 C 6.4 km/h
969 03-06-2014 13:15:00 22.4 C 9.14 g/m*3 22.4 C 4.8 km/h
970 03-06-2014 13:20:00 22.7 C 9.5 g/m*3 22.7 C 4.8 km/h
971 03-06-2014 13:25:00 22.9 C 8.99 g/m*3 22.9 C 1.6 km/h
972 03-06-2014 13:30:00 23.1 C 8.27 g/m*3 23.1 C 6.4 km/h
973 03-06-2014 13:35:00 23.3 C 8.36 g/m*3 23.3 C 8.1 km/h
974 03-06-2014 13:40:00 23 C 8.22 g/m*3 23 C 4.8 km/h
975 03-06-2014 13:45:00 23.1 C 8.27 g/m*3 23.1 C 4.8 km/h
Sensor: Nr:Datum:Temp:Abs-Feuchte:Windchill:Wind:
Aussen-T/F 976 03-06-2014 13:50:00 23.3 C 8.36 g/m*3 23.3 C 8.1 km/h
977 03-06-2014 13:55:00 23.3 C 8.36 g/m*3 23.3 C 6.4 km/h
978 03-06-2014 14:20:00 21.7 C 10.68 g/m*3 21.7 C 1.6 km/h
979 03-06-2014 14:25:00 21 C 10.62 g/m*3 21 C 4.8 km/h
980 03-06-2014 14:30:00 20.9 C 11.11 g/m*3 20.9 C 1.6 km/h
981 03-06-2014 14:35:00 20.8 C 10.5 g/m*3 20.8 C 1.6 km/h
982 03-06-2014 14:40:00 20.8 C 9.6 g/m*3 20.8 C 14.5 km/h
983 03-06-2014 14:45:00 20.7 C 9.72 g/m*3 20.7 C 14.5 km/h
984 03-06-2014 14:50:00 20.6 C 9.84 g/m*3 20.6 C 6.4 km/h
985 03-06-2014 14:55:00 20.4 C 9.91 g/m*3 20.4 C 4.8 km/h
986 03-06-2014 15:00:00 20.2 C 9.79 g/m*3 20.2 C 6.4 km/h
987 03-06-2014 15:05:00 19.9 C 9.97 g/m*3 19.9 C 9.7 km/h
988 03-06-2014 15:10:00 19.7 C 9.85 g/m*3 19.7 C 8.1 km/h
989 03-06-2014 15:15:00 19.6 C 9.79 g/m*3 19.6 C 6.4 km/h
990 03-06-2014 15:20:00 19.6 C 9.79 g/m*3 19.6 C 8.1 km/h
991 03-06-2014 15:25:00 19.7 C 9.85 g/m*3 19.7 C 11.3 km/h
992 03-06-2014 15:30:00 19.8 C 9.57 g/m*3 19.8 C 6.4 km/h
993 03-06-2014 15:35:00 19.9 C 9.45 g/m*3 19.9 C 3.2 km/h
994 03-06-2014 15:40:00 20.1 C 9.73 g/m*3 20.1 C 6.4 km/h
995 03-06-2014 15:45:00 20.3 C 10.02 g/m*3 20.3 C 8.1 km/h
996 03-06-2014 15:50:00 20.5 C 9.25 g/m*3 20.5 C 9.7 km/h
997 03-06-2014 15:55:00 20.3 C 9.32 g/m*3 20.3 C 8.1 km/h
998 03-06-2014 16:00:00 20.3 C 9.32 g/m*3 20.3 C 3.2 km/h
999 03-06-2014 16:05:00 20.3 C 9.32 g/m*3 20.3 C 1.6 km/h
1000 03-06-2014 16:10:00 20.4 C 9.73 g/m*3 20.4 C 8.1 km/h
Sensor: Nr:Datum:Temp:Abs-Feuchte:Windchill:Wind:
Aussen-T/F 1001 03-06-2014 16:15:00 20.4 C 10.08 g/m*3 20.4 C 3.2 km/h
1002 03-06-2014 16:20:00 20.4 C 9.91 g/m*3 20.4 C 0 km/h
1003 03-06-2014 16:25:00 20.3 C 10.55 g/m*3 20.3 C 0 km/h
1004 03-06-2014 16:30:00 20.1 C 11.65 g/m*3 20.1 C 0 km/h
1005 03-06-2014 16:35:00 19.7 C 11.72 g/m*3 19.7 C 0 km/h
1006 03-06-2014 16:40:00 19.4 C 11.51 g/m*3 19.4 C 0 km/h
1007 03-06-2014 16:45:00 19.2 C 11.71 g/m*3 19.2 C 0 km/h
1008 03-06-2014 16:50:00 19 C 11.41 g/m*3 19 C 0 km/h
1009 03-06-2014 16:55:00 18.8 C 11.6 g/m*3 18.8 C 0 km/h
1010 03-06-2014 17:00:00 18.8 C 11.6 g/m*3 18.8 C 0 km/h
1011 03-06-2014 17:05:00 18.8 C 11.43 g/m*3 18.8 C 0 km/h
1012 03-06-2014 17:10:00 18.9 C 11.66 g/m*3 18.9 C 0 km/h
1013 03-06-2014 17:15:00 18.9 C 11.83 g/m*3 18.9 C 0 km/h
1014 03-06-2014 17:20:00 18.9 C 11.99 g/m*3 18.9 C 0 km/h
1015 03-06-2014 17:25:00 18.9 C 11.99 g/m*3 18.9 C 0 km/h
1016 03-06-2014 17:30:00 18.8 C 11.92 g/m*3 18.8 C 0 km/h
1017 03-06-2014 17:35:00 18.8 C 12.08 g/m*3 18.8 C 0 km/h
1018 03-06-2014 17:40:00 18.9 C 11.99 g/m*3 18.9 C 0 km/h
1019 03-06-2014 17:45:00 19.1 C 10.82 g/m*3 19.1 C 0 km/h
1020 03-06-2014 17:50:00 19.4 C 11.68 g/m*3 19.4 C 1.6 km/h
1021 03-06-2014 17:55:00 19.8 C 11.44 g/m*3 19.8 C 1.6 km/h
1022 03-06-2014 18:00:00 20.1 C 10.95 g/m*3 20.1 C 3.2 km/h
1023 03-06-2014 18:05:00 20.1 C 10.08 g/m*3 20.1 C 6.4 km/h
1024 03-06-2014 18:10:00 20.2 C 10.14 g/m*3 20.2 C 4.8 km/h
1025 03-06-2014 18:15:00 20.3 C 10.2 g/m*3 20.3 C 3.2 km/h
Sensor: Nr:Datum:Temp:Abs-Feuchte:Windchill:Wind:
Aussen-T/F 1026 03-06-2014 18:20:00 20.4 C 11.85 g/m*3 20.4 C 1.6 km/h
1027 03-06-2014 18:25:00 20.4 C 12.21 g/m*3 20.4 C 0 km/h
1028 03-06-2014 18:30:00 20.3 C 12.31 g/m*3 20.3 C 1.6 km/h
1029 03-06-2014 18:35:00 20.4 C 9.91 g/m*3 20.4 C 4.8 km/h
1030 03-06-2014 18:40:00 20.9 C 9.83 g/m*3 20.9 C 4.8 km/h
1031 03-06-2014 18:45:00 21.4 C 9.75 g/m*3 21.4 C 4.8 km/h
1032 03-06-2014 18:50:00 21.7 C 9.73 g/m*3 21.7 C 1.6 km/h
1033 03-06-2014 18:55:00 21.5 C 11.5 g/m*3 21.5 C 0 km/h
1034 03-06-2014 19:00:00 21.2 C 11.68 g/m*3 21.2 C 0 km/h
1035 03-06-2014 19:05:00 20.9 C 11.47 g/m*3 20.9 C 0 km/h
1036 03-06-2014 19:10:00 20.5 C 11.57 g/m*3 20.5 C 0 km/h
1037 03-06-2014 19:15:00 20.1 C 11.99 g/m*3 20.1 C 0 km/h
1038 03-06-2014 19:20:00 19.8 C 11.61 g/m*3 19.8 C 1.6 km/h
1039 03-06-2014 19:25:00 19.6 C 11.48 g/m*3 19.6 C 1.6 km/h
1040 03-06-2014 19:30:00 19.3 C 11.78 g/m*3 19.3 C 0 km/h
1041 03-06-2014 19:35:00 18.9 C 11.66 g/m*3 18.9 C 0 km/h
1042 03-06-2014 19:40:00 18.4 C 11.48 g/m*3 18.4 C 0 km/h
1043 03-06-2014 19:45:00 18.1 C 11.59 g/m*3 18.1 C 0 km/h
1044 03-06-2014 19:50:00 17.8 C 11.38 g/m*3 17.8 C 0 km/h
1045 03-06-2014 19:55:00 17.6 C 11.4 g/m*3 17.6 C 1.6 km/h
1046 03-06-2014 20:00:00 17.5 C 11.33 g/m*3 17.5 C 1.6 km/h
1047 03-06-2014 20:05:00 17.3 C 11.2 g/m*3 17.3 C 0 km/h
1048 03-06-2014 20:10:00 17.2 C 11.28 g/m*3 17.2 C 1.6 km/h
1049 03-06-2014 20:15:00 17.2 C 11.13 g/m*3 17.2 C 0 km/h
1050 03-06-2014 20:20:00 17.1 C 11.21 g/m*3 17.1 C 0 km/h
Sensor: Nr:Datum:Temp:Abs-Feuchte:Windchill:Wind:
Aussen-T/F 1051 03-06-2014 20:25:00 16.9 C 11.22 g/m*3 16.9 C 0 km/h
1052 03-06-2014 20:30:00 16.9 C 11.08 g/m*3 16.9 C 0 km/h
1053 03-06-2014 20:35:00 16.8 C 11.01 g/m*3 16.8 C 0 km/h
1054 03-06-2014 20:40:00 16.8 C 11.01 g/m*3 16.8 C 1.6 km/h
1055 03-06-2014 20:45:00 16.8 C 11.01 g/m*3 16.8 C 0 km/h
1056 03-06-2014 20:50:00 16.9 C 11.22 g/m*3 16.9 C 0 km/h
1057 03-06-2014 20:55:00 16.9 C 11.22 g/m*3 16.9 C 0 km/h
1058 03-06-2014 21:00:00 16.8 C 11.29 g/m*3 16.8 C 0 km/h
1059 03-06-2014 21:05:00 16.8 C 11.29 g/m*3 16.8 C 0 km/h
1060 03-06-2014 21:10:00 16.7 C 11.23 g/m*3 16.7 C 1.6 km/h
1061 03-06-2014 21:15:00 16.5 C 11.09 g/m*3 16.5 C 0 km/h
1062 03-06-2014 21:20:00 16.4 C 10.89 g/m*3 16.4 C 1.6 km/h
1063 03-06-2014 21:25:00 16.2 C 10.76 g/m*3 16.2 C 0 km/h
1064 03-06-2014 21:30:00 16.1 C 10.69 g/m*3 16.1 C 0 km/h
1065 03-06-2014 21:35:00 15.9 C 10.56 g/m*3 15.9 C 0 km/h
1066 03-06-2014 21:40:00 15.8 C 10.36 g/m*3 15.8 C 0 km/h
1067 03-06-2014 21:45:00 15.7 C 10.3 g/m*3 15.7 C 0 km/h
1068 03-06-2014 21:50:00 15.6 C 10.24 g/m*3 15.6 C 0 km/h
1069 03-06-2014 21:55:00 15.4 C 10.12 g/m*3 15.4 C 0 km/h
1070 03-06-2014 22:00:00 15.3 C 10.06 g/m*3 15.3 C 0 km/h
1071 03-06-2014 22:05:00 15.2 C 10.12 g/m*3 15.2 C 0 km/h
1072 03-06-2014 22:10:00 15.1 C 10.06 g/m*3 15.1 C 0 km/h
1073 03-06-2014 22:15:00 14.9 C 9.94 g/m*3 14.9 C 0 km/h
1074 03-06-2014 22:20:00 14.8 C 10.01 g/m*3 14.8 C 0 km/h
1075 03-06-2014 22:25:00 14.7 C 9.95 g/m*3 14.7 C 0 km/h
Sensor: Nr:Datum:Temp:Abs-Feuchte:Windchill:Wind:
Aussen-T/F 1076 03-06-2014 22:30:00 14.6 C 9.89 g/m*3 14.6 C 0 km/h
1077 03-06-2014 22:35:00 14.4 C 9.77 g/m*3 14.4 C 0 km/h
1078 03-06-2014 22:40:00 14.3 C 9.83 g/m*3 14.3 C 0 km/h
1079 03-06-2014 22:45:00 14.2 C 9.89 g/m*3 14.2 C 0 km/h
1080 03-06-2014 22:50:00 14.2 C 9.89 g/m*3 14.2 C 0 km/h
1081 03-06-2014 22:55:00 14.1 C 9.83 g/m*3 14.1 C 0 km/h
1082 03-06-2014 23:00:00 14 C 9.77 g/m*3 14 C 1.6 km/h
1083 03-06-2014 23:05:00 13.9 C 9.71 g/m*3 13.9 C 0 km/h
1084 03-06-2014 23:10:00 13.9 C 9.83 g/m*3 13.9 C 0 km/h
1085 03-06-2014 23:15:00 13.8 C 9.77 g/m*3 13.8 C 0 km/h
1086 03-06-2014 23:20:00 13.7 C 9.71 g/m*3 13.7 C 0 km/h
1087 03-06-2014 23:25:00 13.6 C 9.77 g/m*3 13.6 C 0 km/h
1088 03-06-2014 23:30:00 13.6 C 9.77 g/m*3 13.6 C 0 km/h
1089 03-06-2014 23:35:00 13.4 C 9.65 g/m*3 13.4 C 0 km/h
1090 03-06-2014 23:40:00 13.4 C 9.88 g/m*3 13.4 C 0 km/h
1091 03-06-2014 23:45:00 13.5 C 9.83 g/m*3 13.5 C 6.4 km/h
1092 03-06-2014 23:50:00 13.4 C 9.76 g/m*3 13.4 C 0 km/h
1093 03-06-2014 23:55:00 13.4 C 9.76 g/m*3 13.4 C 0 km/h
1094 04-06-2014 00:00:00 13.2 C 9.76 g/m*3 13.2 C 0 km/h
1095 04-06-2014 00:05:00 13.2 C 9.76 g/m*3 13.2 C 0 km/h
1096 04-06-2014 00:10:00 13.1 C 9.81 g/m*3 13.1 C 1.6 km/h
1097 04-06-2014 00:15:00 13.1 C 9.81 g/m*3 13.1 C 0 km/h
1098 04-06-2014 00:20:00 13 C 9.75 g/m*3 13 C 0 km/h
1099 04-06-2014 00:25:00 13 C 9.75 g/m*3 13 C 0 km/h
1100 04-06-2014 00:30:00 12.9 C 9.81 g/m*3 12.9 C 0 km/h
Sensor: Nr:Datum:Temp:Abs-Feuchte:Windchill:Wind:
Aussen-T/F 1101 04-06-2014 00:35:00 12.9 C 9.69 g/m*3 12.9 C 0 km/h
1102 04-06-2014 00:40:00 12.8 C 9.74 g/m*3 12.8 C 0 km/h
1103 04-06-2014 00:45:00 12.8 C 9.74 g/m*3 12.8 C 0 km/h
1104 04-06-2014 00:50:00 12.8 C 9.74 g/m*3 12.8 C 0 km/h
1105 04-06-2014 00:55:00 12.8 C 9.74 g/m*3 12.8 C 0 km/h
1106 04-06-2014 01:00:00 12.7 C 9.68 g/m*3 12.7 C 0 km/h
1107 04-06-2014 01:05:00 12.7 C 9.68 g/m*3 12.7 C 0 km/h
1108 04-06-2014 01:10:00 12.5 C 9.68 g/m*3 12.5 C 0 km/h
1109 04-06-2014 01:15:00 12.4 C 9.62 g/m*3 12.4 C 0 km/h
1110 04-06-2014 01:20:00 12.3 C 9.56 g/m*3 12.3 C 0 km/h
1111 04-06-2014 01:25:00 12.3 C 9.66 g/m*3 12.3 C 0 km/h
1112 04-06-2014 01:30:00 12.2 C 9.5 g/m*3 12.2 C 0 km/h
1113 04-06-2014 01:35:00 12.1 C 9.54 g/m*3 12.1 C 0 km/h
1114 04-06-2014 01:40:00 11.9 C 9.43 g/m*3 11.9 C 0 km/h
1115 04-06-2014 01:45:00 11.9 C 9.43 g/m*3 11.9 C 0 km/h
1116 04-06-2014 01:50:00 11.9 C 9.43 g/m*3 11.9 C 0 km/h
1117 04-06-2014 01:55:00 11.9 C 9.43 g/m*3 11.9 C 0 km/h
1118 04-06-2014 02:00:00 11.8 C 9.47 g/m*3 11.8 C 1.6 km/h
1119 04-06-2014 02:05:00 11.8 C 9.47 g/m*3 11.8 C 1.6 km/h
1120 04-06-2014 02:10:00 11.8 C 9.47 g/m*3 11.8 C 0 km/h
1121 04-06-2014 02:15:00 11.8 C 9.47 g/m*3 11.8 C 0 km/h
1122 04-06-2014 02:20:00 11.7 C 9.52 g/m*3 11.7 C 0 km/h
1123 04-06-2014 02:25:00 11.7 C 9.52 g/m*3 11.7 C 0 km/h
1124 04-06-2014 02:30:00 11.6 C 9.46 g/m*3 11.6 C 0 km/h
1125 04-06-2014 02:35:00 11.5 C 9.4 g/m*3 11.5 C 0 km/h
Sensor: Nr:Datum:Temp:Abs-Feuchte:Windchill:Wind:
Aussen-T/F 1126 04-06-2014 02:40:00 11.4 C 9.34 g/m*3 11.4 C 0 km/h
1127 04-06-2014 02:45:00 11.4 C 9.34 g/m*3 11.4 C 0 km/h
1128 04-06-2014 02:50:00 11.3 C 9.38 g/m*3 11.3 C 0 km/h
1129 04-06-2014 02:55:00 11.3 C 9.38 g/m*3 11.3 C 0 km/h
1130 04-06-2014 03:00:00 11.3 C 9.38 g/m*3 11.3 C 0 km/h
1131 04-06-2014 03:05:00 11.3 C 9.38 g/m*3 11.3 C 0 km/h
1132 04-06-2014 03:10:00 11.2 C 9.33 g/m*3 11.2 C 0 km/h
1133 04-06-2014 03:15:00 11.1 C 9.27 g/m*3 11.1 C 0 km/h
1134 04-06-2014 03:20:00 11.1 C 9.27 g/m*3 11.1 C 0 km/h
1135 04-06-2014 03:25:00 11 C 9.31 g/m*3 11 C 0 km/h
1136 04-06-2014 03:30:00 10.9 C 9.25 g/m*3 10.9 C 0 km/h
1137 04-06-2014 03:35:00 10.9 C 9.25 g/m*3 10.9 C 0 km/h
1138 04-06-2014 03:40:00 10.8 C 9.19 g/m*3 10.8 C 0 km/h
1139 04-06-2014 03:45:00 10.8 C 9.19 g/m*3 10.8 C 0 km/h
1140 04-06-2014 03:50:00 10.8 C 9.19 g/m*3 10.8 C 0 km/h
1141 04-06-2014 03:55:00 10.8 C 9.19 g/m*3 10.8 C 0 km/h
1142 04-06-2014 04:00:00 10.8 C 9.19 g/m*3 10.8 C 0 km/h
1143 04-06-2014 04:05:00 10.8 C 9.29 g/m*3 10.8 C 0 km/h
1144 04-06-2014 04:10:00 10.8 C 9.29 g/m*3 10.8 C 1.6 km/h
1145 04-06-2014 04:15:00 10.7 C 9.23 g/m*3 10.7 C 1.6 km/h
1146 04-06-2014 04:20:00 10.7 C 9.23 g/m*3 10.7 C 0 km/h
1147 04-06-2014 04:25:00 10.7 C 9.23 g/m*3 10.7 C 0 km/h
1148 04-06-2014 04:30:00 10.6 C 9.17 g/m*3 10.6 C 0 km/h
1149 04-06-2014 04:35:00 10.5 C 9.12 g/m*3 10.5 C 0 km/h
1150 04-06-2014 04:40:00 10.5 C 9.12 g/m*3 10.5 C 0 km/h
Sensor: Nr:Datum:Temp:Abs-Feuchte:Windchill:Wind:
Aussen-T/F 1151 04-06-2014 04:45:00 10.6 C 9.17 g/m*3 10.6 C 1.6 km/h
1152 04-06-2014 04:50:00 10.6 C 9.17 g/m*3 10.6 C 0 km/h
1153 04-06-2014 04:55:00 10.6 C 9.17 g/m*3 10.6 C 0 km/h
1154 04-06-2014 05:00:00 10.7 C 9.23 g/m*3 10.7 C 0 km/h
1155 04-06-2014 05:05:00 10.7 C 9.23 g/m*3 10.7 C 0 km/h
1156 04-06-2014 05:10:00 10.8 C 9.39 g/m*3 10.8 C 0 km/h
1157 04-06-2014 05:15:00 10.8 C 9.39 g/m*3 10.8 C 0 km/h
1158 04-06-2014 05:20:00 10.9 C 9.45 g/m*3 10.9 C 0 km/h
1159 04-06-2014 05:25:00 10.9 C 9.35 g/m*3 10.9 C 0 km/h
1160 04-06-2014 05:30:00 10.9 C 9.35 g/m*3 10.9 C 0 km/h
1161 04-06-2014 05:35:00 10.9 C 9.35 g/m*3 10.9 C 0 km/h
1162 04-06-2014 05:40:00 10.9 C 9.35 g/m*3 10.9 C 0 km/h
1163 04-06-2014 05:45:00 10.9 C 9.35 g/m*3 10.9 C 0 km/h
1164 04-06-2014 05:50:00 10.9 C 9.35 g/m*3 10.9 C 0 km/h
1165 04-06-2014 05:55:00 10.9 C 9.35 g/m*3 10.9 C 0 km/h
1166 04-06-2014 06:00:00 10.9 C 9.35 g/m*3 10.9 C 0 km/h
1167 04-06-2014 06:05:00 11.1 C 9.47 g/m*3 11.1 C 0 km/h
1168 04-06-2014 06:10:00 11.2 C 9.53 g/m*3 11.2 C 1.6 km/h
1169 04-06-2014 06:15:00 11.3 C 9.59 g/m*3 11.3 C 0 km/h
1170 04-06-2014 06:20:00 11.4 C 9.65 g/m*3 11.4 C 1.6 km/h
1171 04-06-2014 06:25:00 11.6 C 9.67 g/m*3 11.6 C 0 km/h
1172 04-06-2014 06:30:00 11.7 C 9.73 g/m*3 11.7 C 0 km/h
1173 04-06-2014 06:35:00 11.8 C 9.79 g/m*3 11.8 C 0 km/h
1174 04-06-2014 06:40:00 11.9 C 9.74 g/m*3 11.9 C 1.6 km/h
1175 04-06-2014 06:45:00 12.1 C 9.87 g/m*3 12.1 C 0 km/h
Sensor: Nr:Datum:Temp:Abs-Feuchte:Windchill:Wind:
Aussen-T/F 1176 04-06-2014 06:50:00 12.1 C 9.76 g/m*3 12.1 C 0 km/h
1177 04-06-2014 06:55:00 12.2 C 9.82 g/m*3 12.2 C 0 km/h
1178 04-06-2014 07:00:00 12.3 C 9.77 g/m*3 12.3 C 0 km/h
1179 04-06-2014 07:05:00 12.4 C 9.83 g/m*3 12.4 C 0 km/h
1180 04-06-2014 07:10:00 12.5 C 9.89 g/m*3 12.5 C 0 km/h
1181 04-06-2014 07:15:00 12.6 C 9.85 g/m*3 12.6 C 0 km/h
1182 04-06-2014 07:20:00 12.7 C 9.91 g/m*3 12.7 C 0 km/h
1183 04-06-2014 07:25:00 12.8 C 10.08 g/m*3 12.8 C 1.6 km/h
1184 04-06-2014 07:30:00 12.9 C 10.03 g/m*3 12.9 C 0 km/h
1185 04-06-2014 07:35:00 13.1 C 10.16 g/m*3 13.1 C 0 km/h
1186 04-06-2014 07:40:00 13.3 C 10.17 g/m*3 13.3 C 0 km/h
1187 04-06-2014 07:45:00 13.4 C 10.23 g/m*3 13.4 C 0 km/h
1188 04-06-2014 07:50:00 13.6 C 10.36 g/m*3 13.6 C 0 km/h
1189 04-06-2014 07:55:00 13.7 C 10.3 g/m*3 13.7 C 0 km/h
1190 04-06-2014 08:00:00 13.8 C 10.37 g/m*3 13.8 C 0 km/h
1191 04-06-2014 08:05:00 14 C 10.49 g/m*3 14 C 0 km/h
1192 04-06-2014 08:10:00 14.4 C 10.75 g/m*3 14.4 C 0 km/h
1193 04-06-2014 08:15:00 14.8 C 10.77 g/m*3 14.8 C 1.6 km/h
1194 04-06-2014 08:20:00 15.3 C 10.97 g/m*3 15.3 C 1.6 km/h
1195 04-06-2014 08:25:00 15.7 C 11.11 g/m*3 15.7 C 1.6 km/h
1196 04-06-2014 08:30:00 15.9 C 11.1 g/m*3 15.9 C 1.6 km/h
1197 04-06-2014 08:35:00 16.2 C 11.17 g/m*3 16.2 C 1.6 km/h
1198 04-06-2014 08:40:00 16.4 C 11.17 g/m*3 16.4 C 1.6 km/h
1199 04-06-2014 08:45:00 16.8 C 11.58 g/m*3 16.8 C 1.6 km/h
1200 04-06-2014 08:50:00 17.1 C 11.21 g/m*3 17.1 C 6.4 km/h
Sensor: Nr:Datum:Temp:Abs-Feuchte:Windchill:Wind:
Aussen-T/F 1201 04-06-2014 08:55:00 17.4 C 11.12 g/m*3 17.4 C 4.8 km/h
1202 04-06-2014 09:00:00 17.5 C 11.18 g/m*3 17.5 C 3.2 km/h
1203 04-06-2014 09:05:00 17.6 C 11.1 g/m*3 17.6 C 1.6 km/h
1204 04-06-2014 09:10:00 17.7 C 10.86 g/m*3 17.7 C 9.7 km/h
1205 04-06-2014 09:15:00 17.8 C 11.08 g/m*3 17.8 C 3.2 km/h
1206 04-06-2014 09:20:00 17.8 C 11.08 g/m*3 17.8 C 4.8 km/h
1207 04-06-2014 09:25:00 17.8 C 10.93 g/m*3 17.8 C 3.2 km/h
1208 04-06-2014 09:30:00 17.9 C 11.15 g/m*3 17.9 C 8.1 km/h
1209 04-06-2014 09:35:00 18.1 C 11.43 g/m*3 18.1 C 4.8 km/h
1210 04-06-2014 09:40:00 18.3 C 11.26 g/m*3 18.3 C 4.8 km/h
1211 04-06-2014 09:45:00 18.3 C 11.1 g/m*3 18.3 C 14.5 km/h
1212 04-06-2014 09:50:00 18.3 C 11.1 g/m*3 18.3 C 12.9 km/h
1213 04-06-2014 09:55:00 18.3 C 11.1 g/m*3 18.3 C 4.8 km/h
1214 04-06-2014 11:40:00 20.4 C 12.21 g/m*3 20.4 C 6.4 km/h
1215 04-06-2014 11:45:00 20.6 C 12.17 g/m*3 20.6 C 3.2 km/h
1216 04-06-2014 11:50:00 20.8 C 11.77 g/m*3 20.8 C 3.2 km/h
1217 04-06-2014 11:55:00 20.9 C 11.84 g/m*3 20.9 C 3.2 km/h
1218 04-06-2014 12:00:00 21 C 11.54 g/m*3 21 C 8.1 km/h
1219 04-06-2014 12:05:00 20.9 C 11.47 g/m*3 20.9 C 3.2 km/h
1220 04-06-2014 12:10:00 20.9 C 11.84 g/m*3 20.9 C 3.2 km/h
1221 04-06-2014 12:15:00 20.8 C 11.59 g/m*3 20.8 C 3.2 km/h
1222 04-06-2014 12:20:00 20.6 C 12.35 g/m*3 20.6 C 1.6 km/h
1223 04-06-2014 12:25:00 20.3 C 11.61 g/m*3 20.3 C 3.2 km/h
1224 04-06-2014 12:30:00 20.1 C 12.34 g/m*3 20.1 C 0 km/h
1225 04-06-2014 12:35:00 19.8 C 11.27 g/m*3 19.8 C 3.2 km/h
Sensor: Nr:Datum:Temp:Abs-Feuchte:Windchill:Wind:
Aussen-T/F 1226 04-06-2014 12:40:00 19.7 C 11.04 g/m*3 19.7 C 6.4 km/h
1227 04-06-2014 12:45:00 19.5 C 10.91 g/m*3 19.5 C 11.3 km/h
1228 04-06-2014 12:50:00 19.3 C 10.78 g/m*3 19.3 C 9.7 km/h
1229 04-06-2014 12:55:00 19.1 C 10.66 g/m*3 19.1 C 14.5 km/h
1230 04-06-2014 13:00:00 18.8 C 10.79 g/m*3 18.8 C 19.3 km/h
1231 04-06-2014 13:05:00 18.4 C 10.85 g/m*3 18.4 C 14.5 km/h
1232 04-06-2014 13:10:00 18.2 C 11.19 g/m*3 18.2 C 11.3 km/h
1233 04-06-2014 13:15:00 17.9 C 11.15 g/m*3 17.9 C 8.1 km/h
1234 04-06-2014 13:20:00 17.8 C 10.93 g/m*3 17.8 C 4.8 km/h
1235 04-06-2014 13:25:00 17.9 C 11.15 g/m*3 17.9 C 6.4 km/h
1236 04-06-2014 13:30:00 18 C 11.21 g/m*3 18 C 9.7 km/h
1237 04-06-2014 13:35:00 17.9 C 11.3 g/m*3 17.9 C 12.9 km/h
1238 04-06-2014 13:40:00 17.8 C 11.23 g/m*3 17.8 C 8.1 km/h
1239 04-06-2014 13:45:00 17.7 C 11.47 g/m*3 17.7 C 9.7 km/h
1240 04-06-2014 13:50:00 17.7 C 12.07 g/m*3 17.7 C 8.1 km/h
1241 04-06-2014 13:55:00 17.6 C 12 g/m*3 17.6 C 3.2 km/h
1242 04-06-2014 14:00:00 17.5 C 11.63 g/m*3 17.5 C 4.8 km/h
1243 04-06-2014 14:05:00 17.4 C 11.71 g/m*3 17.4 C 6.4 km/h
1244 04-06-2014 14:10:00 17.3 C 11.93 g/m*3 17.3 C 6.4 km/h
1245 04-06-2014 14:15:00 17.2 C 12.01 g/m*3 17.2 C 0 km/h
1246 04-06-2014 14:20:00 17.1 C 11.94 g/m*3 17.1 C 0 km/h
1247 04-06-2014 14:25:00 16.9 C 11.94 g/m*3 16.9 C 0 km/h
1248 04-06-2014 14:30:00 16.7 C 11.94 g/m*3 16.7 C 0 km/h
1249 04-06-2014 14:35:00 16.5 C 12.08 g/m*3 16.5 C 0 km/h
1250 04-06-2014 14:40:00 16.4 C 12.14 g/m*3 16.4 C 0 km/h
Sensor: Nr:Datum:Temp:Abs-Feuchte:Windchill:Wind:
Aussen-T/F 1251 04-06-2014 14:45:00 16.5 C 12.36 g/m*3 16.5 C 0 km/h
1252 04-06-2014 14:50:00 16.8 C 12.87 g/m*3 16.8 C 0 km/h
1253 04-06-2014 14:55:00 17.1 C 13.1 g/m*3 17.1 C 3.2 km/h
1254 04-06-2014 15:00:00 17.4 C 13.19 g/m*3 17.4 C 4.8 km/h
1255 04-06-2014 15:05:00 17.6 C 12.9 g/m*3 17.6 C 3.2 km/h
1256 04-06-2014 15:10:00 17.8 C 12.9 g/m*3 17.8 C 4.8 km/h
1257 04-06-2014 15:15:00 17.9 C 12.83 g/m*3 17.9 C 1.6 km/h
1258 04-06-2014 15:20:00 17.8 C 12.9 g/m*3 17.8 C 0 km/h
1259 04-06-2014 15:25:00 17.6 C 13.05 g/m*3 17.6 C 0 km/h
1260 04-06-2014 15:30:00 17.2 C 12.89 g/m*3 17.2 C 0 km/h
1261 04-06-2014 15:35:00 17.1 C 13.1 g/m*3 17.1 C 0 km/h
1262 04-06-2014 15:40:00 17.2 C 13.33 g/m*3 17.2 C 0 km/h
1263 04-06-2014 15:45:00 17.2 C 13.18 g/m*3 17.2 C 4.8 km/h
1264 04-06-2014 15:50:00 17.2 C 13.18 g/m*3 17.2 C 3.2 km/h
1265 04-06-2014 15:55:00 17.3 C 13.26 g/m*3 17.3 C 0 km/h
1266 04-06-2014 16:00:00 17.4 C 13.34 g/m*3 17.4 C 0 km/h
1267 04-06-2014 16:05:00 17.5 C 13.42 g/m*3 17.5 C 0 km/h
1268 04-06-2014 16:10:00 17.4 C 13.34 g/m*3 17.4 C 0 km/h
1269 04-06-2014 16:15:00 17.4 C 13.34 g/m*3 17.4 C 0 km/h
1270 04-06-2014 16:20:00 17.4 C 13.49 g/m*3 17.4 C 0 km/h
1271 04-06-2014 16:25:00 17.3 C 13.41 g/m*3 17.3 C 0 km/h
1272 04-06-2014 16:30:00 17.2 C 13.33 g/m*3 17.2 C 0 km/h
1273 04-06-2014 16:35:00 17.1 C 13.39 g/m*3 17.1 C 0 km/h
1274 04-06-2014 16:40:00 16.7 C 13.07 g/m*3 16.7 C 0 km/h
1275 04-06-2014 16:45:00 16.6 C 13.14 g/m*3 16.6 C 0 km/h
Sensor: Nr:Datum:Temp:Abs-Feuchte:Windchill:Wind:
Aussen-T/F 1276 04-06-2014 16:50:00 16.5 C 13.06 g/m*3 16.5 C 1.6 km/h
1277 04-06-2014 16:55:00 16.6 C 13.28 g/m*3 16.6 C 0 km/h
1278 04-06-2014 17:00:00 16.4 C 12.98 g/m*3 16.4 C 0 km/h
1279 04-06-2014 17:05:00 16.6 C 13.28 g/m*3 16.6 C 0 km/h
1280 04-06-2014 17:10:00 16.6 C 13.28 g/m*3 16.6 C 0 km/h
1281 04-06-2014 17:15:00 16.7 C 13.36 g/m*3 16.7 C 0 km/h
1282 04-06-2014 17:20:00 16.8 C 13.58 g/m*3 16.8 C 0 km/h
1283 04-06-2014 17:25:00 16.8 C 13.58 g/m*3 16.8 C 0 km/h
1284 04-06-2014 17:30:00 16.8 C 13.58 g/m*3 16.8 C 0 km/h
1285 04-06-2014 17:35:00 16.8 C 13.58 g/m*3 16.8 C 4.8 km/h
1286 04-06-2014 17:40:00 16.8 C 13.58 g/m*3 16.8 C 0 km/h
1287 04-06-2014 17:45:00 16.5 C 13.06 g/m*3 16.5 C 3.2 km/h
1288 04-06-2014 17:50:00 16.3 C 12.9 g/m*3 16.3 C 1.6 km/h
1289 04-06-2014 17:55:00 16.2 C 12.82 g/m*3 16.2 C 0 km/h
1290 04-06-2014 18:00:00 16.1 C 12.75 g/m*3 16.1 C 0 km/h
1291 04-06-2014 18:05:00 16.1 C 12.88 g/m*3 16.1 C 0 km/h
1292 04-06-2014 18:10:00 16.2 C 12.96 g/m*3 16.2 C 0 km/h
1293 04-06-2014 18:15:00 16.2 C 13.1 g/m*3 16.2 C 0 km/h
1294 04-06-2014 18:20:00 16.3 C 13.18 g/m*3 16.3 C 0 km/h
1295 04-06-2014 18:25:00 16.5 C 13.34 g/m*3 16.5 C 0 km/h
1296 04-06-2014 18:30:00 16.6 C 13.28 g/m*3 16.6 C 0 km/h
1297 04-06-2014 18:35:00 16.9 C 13.38 g/m*3 16.9 C 6.4 km/h
1298 04-06-2014 18:40:00 17.2 C 13.47 g/m*3 17.2 C 0 km/h
1299 04-06-2014 18:45:00 17.4 C 13.34 g/m*3 17.4 C 1.6 km/h
1300 04-06-2014 18:50:00 17.8 C 13.36 g/m*3 17.8 C 1.6 km/h
Sensor: Nr:Datum:Temp:Abs-Feuchte:Windchill:Wind:
Aussen-T/F 1301 04-06-2014 18:55:00 17.9 C 13.59 g/m*3 17.9 C 0 km/h
1302 04-06-2014 19:00:00 17.9 C 13.44 g/m*3 17.9 C 0 km/h
1303 04-06-2014 19:05:00 18.1 C 13.44 g/m*3 18.1 C 1.6 km/h
1304 04-06-2014 19:10:00 18.1 C 13.75 g/m*3 18.1 C 3.2 km/h
1305 04-06-2014 19:15:00 18.1 C 13.13 g/m*3 18.1 C 1.6 km/h
1306 04-06-2014 19:20:00 18 C 13.52 g/m*3 18 C 0 km/h
1307 04-06-2014 19:25:00 17.8 C 13.51 g/m*3 17.8 C 0 km/h
1308 04-06-2014 19:30:00 17.6 C 13.5 g/m*3 17.6 C 0 km/h
1309 04-06-2014 19:35:00 17.6 C 13.5 g/m*3 17.6 C 1.6 km/h
1310 04-06-2014 21:45:00 14.6 C 11.89 g/m*3 14.6 C 0 km/h
1311 04-06-2014 21:50:00 14.5 C 11.69 g/m*3 14.5 C 0 km/h
1312 04-06-2014 21:55:00 14.5 C 11.69 g/m*3 14.5 C 1.6 km/h

Legende:
   Min
   Max


Maximal/Minimal-Werte vom 31.05.2014 - 04.06.2014

Sensor Min Max Avg
Temp
(Aussen-T/F)
5.3 °C
31-05-2014  05:55:00
24 °C
02-06-2014  17:45:00
15.08 °C
Abs-Feuchte
(Aussen-T/F)
6.58 g/m*3
31-05-2014  05:55:00
13.75 g/m*3
04-06-2014  19:10:00
9.34 g/m*3
Windchill
(Aussen-T/F)
5.3 C
31-05-2014  05:55:00
24 C
02-06-2014  17:45:00
15.07 C

Die Daten stammen von einer Davis Vantage Pro 2 Wetter-Station und werden unter Linux mit der Software wview2wettercgi und aufbereitet. Alle Angaben erfolgen ohne Gewähr für ihre Vollständigkeit oder Richtigkeit.
Kontakt: Rainer Krienke krienke@uni-koblenz.de . Meine Webseiten an der Uni Koblenz oder privat.
Version: $Revision: 0.78 $